Flight Track Log - Related Links

Times and Time Zones

All times are in EDT time to prevent confusion due to time zone crossing. See the UAL139 flight status page for this flight to view local times or setup timezone preferences in your user account.

Time Position Orientation Groundspeed Altitude Reporting Facility
EDT Latitude Longitude Course Direction KTS MPH feet Rate Location/Type
Wed 02:50:29 PM 39.8410 -104.7330 180° South 202 232 5,500  Level FlightAware ADS-B
Wed 02:50:47 PM 39.8420 -104.7560 273° West 202 232 6,300 2,077 Climbing FlightAware ADS-B
Wed 02:50:55 PM 39.8430 -104.7660 277° West 212 244 6,400 857 Climbing FlightAware ADS-B
Wed 02:51:01 PM 39.8460 -104.7730 299° West 219 252 6,500 400 Climbing FlightAware ADS-B
Wed 02:51:25 PM 39.8610 -104.8010 305° West 254 292 6,600 818 Climbing FlightAware ADS-B
Wed 02:51:45 PM 39.8740 -104.8270 303° West 269 310 7,100 1,500 Climbing FlightAware ADS-B
Wed 02:52:05 PM 39.8880 -104.8560 302° West 287 330 7,600 1,875 Climbing FlightAware ADS-B
Wed 02:52:17 PM 39.8970 -104.8740 303° West 289 333 8,100 2,400 Climbing FlightAware ADS-B
Wed 02:52:25 PM 39.9020 -104.8860 299° West 291 335 8,400 2,500 Climbing FlightAware ADS-B
Wed 02:52:41 PM 39.9080 -104.9130 286° West 294 338 9,100 2,500 Climbing FlightAware ADS-B
Wed 02:53:01 PM 39.9110 -104.9480 276° West 297 342 9,900 2,077 Climbing FlightAware ADS-B
Wed 02:53:33 PM 39.9170 -105.0080 277° West 319 367 10,900 1,629 Climbing FlightAware ADS-B
Wed 02:54:11 PM 39.9230 -105.0840 276° West 350 403 11,800 1,859 Climbing FlightAware ADS-B
Wed 02:54:44 PM 39.9300 -105.1530 278° West 356 410 13,100 2,206 Climbing FlightAware ADS-B
Wed 02:55:19 PM 39.9370 -105.2300 277° West 368 423 14,300 2,113 Climbing FlightAware ADS-B
Wed 02:55:55 PM 39.9430 -105.3080 276° West 376 433 15,600 2,026 Climbing FlightAware ADS-B
Wed 02:56:36 PM 39.9430 -105.4020 270° West 387 445 16,900 2,260 Climbing FlightAware ADS-B
Wed 02:57:12 PM 39.9320 -105.4840 260° West 383 441 18,500 2,348 Climbing FlightAware ADS-B
Wed 02:57:45 PM 39.9250 -105.5600 263° West 389 448 19,600 1,727 Climbing FlightAware ADS-B
Wed 02:58:18 PM 39.9190 -105.6400 264° West 404 465 20,400 1,701 Climbing FlightAware ADS-B
Wed 02:58:52 PM 39.9230 -105.7210 274° West 408 470 21,500 1,701 Climbing FlightAware ADS-B
Wed 02:59:25 PM 39.9460 -105.8010 291° West 420 483 22,300 1,478 Climbing FlightAware ADS-B
Wed 03:00:01 PM 39.9720 -105.8850 292° West 430 495 23,200 1,791 Climbing FlightAware ADS-B
Wed 03:00:32 PM 40.0010 -105.9540 299° West 428 493 24,300 1,688 Climbing FlightAware ADS-B
Wed 03:01:05 PM 40.0360 -106.0310 301° West 439 505 25,000 1,569 Climbing FlightAware ADS-B
Wed 03:01:37 PM 40.0690 -106.1030 301° West 439 505 26,000 1,676 Climbing FlightAware ADS-B
Wed 03:02:13 PM 40.1080 -106.1850 302° West 444 511 26,900 1,478 Climbing FlightAware ADS-B
Wed 03:02:46 PM 40.1420 -106.2560 302° West 446 513 27,700 1,412 Climbing FlightAware ADS-B
Wed 03:03:21 PM 40.1810 -106.3400 301° West 451 519 28,500 1,324 Climbing FlightAware ADS-B
Wed 03:03:54 PM 40.2140 -106.4100 302° West 454 522 29,200 1,324 Climbing FlightAware ADS-B
Wed 03:04:29 PM 40.2560 -106.4990 302° West 460 529 30,000 1,114 Climbing FlightAware ADS-B
Wed 03:05:04 PM 40.2950 -106.5820 302° West 469 540 30,500 628 Climbing FlightAware ADS-B
Wed 03:05:55 PM 40.3440 -106.6860 302° West 470 541 30,900 1,067 Climbing FlightAware ADS-B
Wed 03:06:34 PM 40.3930 -106.7920 301° West 473 544 32,100 923 Climbing FlightAware ADS-B
Wed 03:07:13 PM 40.4310 -106.8730 302° West 473 544 32,100 553 Level FlightAware ADS-B
Wed 03:07:50 PM 40.4760 -106.9710 301° West 486 559 32,800 592 Climbing FlightAware ADS-B
Wed 03:08:24 PM 40.5100 -107.0440 302° West 486 559 32,800 1,304 Level FlightAware ADS-B
Wed 03:08:59 PM 40.5650 -107.1640 301° West 495 570 34,300 2,028 Climbing FlightAware ADS-B
Wed 03:09:35 PM 40.6090 -107.2590 301° West 646 743 35,200 1,235 Climbing FlightAware ADS-B
Wed 03:10:07 PM 40.6370 -107.3200 301° West 488 562 35,700 1,147 Climbing FlightAware ADS-B
Wed 03:10:43 PM 40.6880 -107.4310 301° West 482 555 36,500 1,286 Climbing FlightAware ADS-B
Wed 03:11:03 PM 40.7100 -107.4790 301° West 479 551 36,900 441 Climbing FlightAware ADS-B
Wed 03:11:51 PM 40.7610 -107.5920 301° West 477 549 37,000 60 Climbing FlightAware ADS-B
Wed 03:12:43 PM 40.8230 -107.7300 301° West 479 551 37,000  Level FlightAware ADS-B
Wed 03:13:14 PM 40.8550 -107.8000 301° West 483 556 37,000  Level FlightAware ADS-B
Wed 03:14:01 PM 40.9140 -107.9310 301° West 485 558 37,000  Level FlightAware ADS-B
Wed 03:14:33 PM 40.9490 -108.0100 300° West 489 563 37,000 364 Level FlightAware ADS-B
Wed 03:15:07 PM 40.9900 -108.1010 301° West 488 562 37,400 385 Climbing FlightAware ADS-B
Wed 03:15:51 PM 41.0250 -108.1820 300° West 488 562 37,500 77 Climbing FlightAware ADS-B
Wed 03:16:25 PM 41.0580 -108.2570 300° West 488 562 37,500  Level FlightAware ADS-B
Wed 03:17:01 PM 41.0920 -108.3360 300° West 488 562 37,500  Level FlightAware ADS-B
Wed 03:17:37 PM 41.1270 -108.4160 300° West 488 562 37,500  Level FlightAware ADS-B
Wed 03:18:11 PM 41.1600 -108.4910 300° West 488 562 37,500  Level FlightAware ADS-B
Wed 03:18:47 PM 41.1940 -108.5700 300° West 488 562 37,500  Level FlightAware ADS-B
Wed 03:19:23 PM 41.2290 -108.6500 300° West 488 562 37,500  Level FlightAware ADS-B
Wed 03:19:59 PM 41.2630 -108.7290 300° West 488 562 37,500  Level FlightAware ADS-B
Wed 03:20:35 PM 41.2980 -108.8090 300° West 488 562 37,500  Level FlightAware ADS-B
Wed 03:21:12 PM 41.3330 -108.8910 300° West 488 562 37,500  Level FlightAware ADS-B
Wed 03:21:48 PM 41.3680 -108.9710 300° West 488 562 37,500  Level FlightAware ADS-B
Wed 03:22:24 PM 41.4020 -109.0500 300° West 488 562 37,500  Level FlightAware ADS-B
Wed 03:23:00 PM 41.4370 -109.1300 300° West 488 562 37,500  Level FlightAware ADS-B
Wed 03:23:36 PM 41.4710 -109.2100 300° West 488 562 37,500  Level FlightAware ADS-B
Wed 03:24:12 PM 41.5060 -109.2900 300° West 488 562 37,500  Level FlightAware ADS-B
Wed 03:25:00 PM 41.5520 -109.3960 300° West 488 562 37,500 330 Level FlightAware ADS-B
Wed 03:25:43 PM 41.6906 -109.7200 300° West 480 552 38,000 288 Climbing Salt Lake Center
Wed 03:26:44 PM 41.7564 -109.8739 300° West 479 551 38,000  Level Salt Lake Center
Wed 03:32:05 PM 42.1280 -110.7090 300° West 483 556 38,000  Level FlightAware ADS-B
Wed 03:32:43 PM 42.1790 -110.8010 307° West 483 556 38,000  Level FlightAware ADS-B
Wed 03:33:17 PM 42.2240 -110.8820 307° West 483 556 38,000  Level FlightAware ADS-B
Wed 03:33:50 PM 42.2680 -110.9610 307° West 485 558 38,000  Level FlightAware ADS-B
Wed 03:34:32 PM 42.3180 -111.0530 306° West 485 558 38,000  Level FlightAware ADS-B
Wed 03:35:08 PM 42.3580 -111.1280 306° West 485 558 38,000  Level FlightAware ADS-B
Wed 03:35:44 PM 42.3990 -111.2040 306° West 485 558 38,000  Level FlightAware ADS-B
Wed 03:36:21 PM 42.4700 -111.3280 308° West 483 556 38,000  Level FlightAware ADS-B
Wed 03:36:55 PM 42.5150 -111.4100 307° West 481 554 38,000  Level FlightAware ADS-B
Wed 03:37:09 PM 42.5342 -111.4450 307° West 482 555 38,000  Level FlightAware ADS-B
Wed 03:37:40 PM 42.5751 -111.5200 307° West 481 554 38,000  Level FlightAware ADS-B
Wed 03:38:43 PM 42.6581 -111.6730 306° West 480 552 38,000  Level FlightAware ADS-B
Wed 03:39:14 PM 42.6992 -111.7490 306° West 481 554 38,000  Level FlightAware ADS-B
Wed 03:39:44 PM 42.7389 -111.8220 307° West 484 557 38,000  Level FlightAware ADS-B
Wed 03:40:16 PM 42.7805 -111.9000 306° West 486 559 38,000  Level FlightAware ADS-B
Wed 03:40:47 PM 42.8212 -111.9750 307° West 484 557 38,000  Level FlightAware ADS-B
Wed 03:41:20 PM 42.8647 -112.0570 306° West 481 554 38,000  Level FlightAware ADS-B
Wed 03:42:15 PM 42.8920 -112.1120 304° West 480 552 38,000  Level FlightAware ADS-B
Wed 03:42:38 PM 42.9668 -112.2480 307° West 488 562 38,000  Level FlightAware ADS-B
Wed 03:43:09 PM 43.0075 -112.3250 306° West 487 560 38,000  Level FlightAware ADS-B
Wed 03:44:03 PM 43.0120 -112.3370 297° West 480 552 38,000  Level FlightAware ADS-B
Wed 03:44:40 PM 43.0530 -112.4140 306° West 480 552 38,000  Level FlightAware ADS-B
Wed 03:45:16 PM 43.0930 -112.4890 306° West 480 552 38,000  Level FlightAware ADS-B
Wed 03:45:52 PM 43.1330 -112.5650 306° West 480 552 38,000  Level FlightAware ADS-B
Wed 03:46:29 PM 43.1740 -112.6420 306° West 480 552 38,000  Level FlightAware ADS-B
Wed 03:46:43 PM 43.2919 -112.8370 310° West 468 539 38,000  Level FlightAware ADS-B
Wed 03:47:33 PM 43.3535 -112.9600 305° West 469 540 38,000  Level FlightAware ADS-B
Wed 03:48:20 PM 43.4110 -113.0770 304° West 472 543 38,000  Level FlightAware ADS-B
Wed 03:48:52 PM 43.4480 -113.1550 303° West 469 540 38,000  Level FlightAware ADS-B
Wed 03:49:26 PM 43.4890 -113.2430 303° West 470 541 38,000  Level FlightAware ADS-B
Wed 03:50:05 PM 43.5350 -113.3380 304° West 474 545 38,000  Level FlightAware ADS-B
Wed 03:50:42 PM 43.5830 -113.4320 305° West 476 548 38,000  Level FlightAware ADS-B
Wed 03:51:16 PM 43.6260 -113.5170 305° West 480 552 38,000  Level FlightAware ADS-B
Wed 03:51:49 PM 43.6680 -113.5980 306° West 483 556 38,000  Level FlightAware ADS-B
Wed 03:52:24 PM 43.7130 -113.6880 305° West 483 556 38,000  Level FlightAware ADS-B
Wed 03:52:58 PM 43.7560 -113.7730 305° West 482 555 38,000  Level FlightAware ADS-B
Wed 03:53:34 PM 43.8010 -113.8620 305° West 483 556 38,000  Level FlightAware ADS-B
Wed 03:54:02 PM 43.8350 -113.9300 305° West 484 557 38,000  Level FlightAware ADS-B
Wed 03:54:37 PM 43.8820 -114.0230 305° West 480 552 38,000  Level FlightAware ADS-B
Wed 03:55:14 PM 43.9300 -114.1180 305° West 477 549 38,000  Level FlightAware ADS-B
Wed 03:55:48 PM 43.9710 -114.2020 304° West 476 548 38,000  Level FlightAware ADS-B
Wed 03:56:24 PM 44.0170 -114.2940 305° West 474 545 38,000  Level FlightAware ADS-B
Wed 03:56:56 PM 44.0560 -114.3730 305° West 477 549 38,000  Level FlightAware ADS-B
Wed 03:57:33 PM 44.1010 -114.4640 305° West 473 544 38,000  Level FlightAware ADS-B
Wed 03:58:10 PM 44.1480 -114.5600 304° West 473 544 38,000  Level FlightAware ADS-B
Wed 03:58:43 PM 44.1870 -114.6400 304° West 474 545 38,000  Level FlightAware ADS-B
Wed 03:59:19 PM 44.2320 -114.7310 305° West 476 548 38,000  Level FlightAware ADS-B
Wed 03:59:54 PM 44.2750 -114.8200 304° West 475 547 38,000  Level FlightAware ADS-B
Wed 04:00:26 PM 44.3160 -114.9040 304° West 475 547 38,000  Level FlightAware ADS-B
Wed 04:01:03 PM 44.3600 -114.9940 304° West 475 547 38,000  Level FlightAware ADS-B
Wed 04:01:39 PM 44.4040 -115.0860 304° West 476 548 38,000  Level FlightAware ADS-B
Wed 04:02:14 PM 44.4480 -115.1780 304° West 478 550 38,000  Level FlightAware ADS-B
Wed 04:02:48 PM 44.4900 -115.2650 304° West 478 550 38,000  Level FlightAware ADS-B
Wed 04:03:22 PM 44.5310 -115.3520 303° West 479 551 38,000  Level FlightAware ADS-B
Wed 04:04:00 PM 44.5790 -115.4520 304° West 479 551 38,000  Level FlightAware ADS-B
Wed 04:04:32 PM 44.6180 -115.5330 304° West 478 550 38,000  Level FlightAware ADS-B
Wed 04:05:10 PM 44.6630 -115.6270 304° West 478 550 38,000  Level FlightAware ADS-B
Wed 04:05:42 PM 44.7030 -115.7140 303° West 478 550 38,000  Level FlightAware ADS-B
Wed 04:06:18 PM 44.7480 -115.8080 304° West 477 549 38,000  Level FlightAware ADS-B
Wed 04:06:53 PM 44.7890 -115.8960 303° West 478 550 38,000  Level FlightAware ADS-B
Wed 04:07:28 PM 44.8320 -115.9880 303° West 480 552 38,000  Level FlightAware ADS-B
Wed 04:08:03 PM 44.8750 -116.0800 303° West 479 551 38,000  Level FlightAware ADS-B
Wed 04:08:36 PM 44.9150 -116.1650 304° West 479 551 38,000  Level FlightAware ADS-B
Wed 04:09:13 PM 44.9590 -116.2620 303° West 479 551 38,000  Level FlightAware ADS-B
Wed 04:09:49 PM 45.0040 -116.3570 304° West 482 555 38,000  Level FlightAware ADS-B
Wed 04:10:21 PM 45.0420 -116.4410 303° West 483 556 38,000  Level FlightAware ADS-B
Wed 04:10:59 PM 45.0890 -116.5430 303° West 480 552 38,000  Level FlightAware ADS-B
Wed 04:11:27 PM 45.1170 -116.6040 303° West 479 551 38,000  Level FlightAware ADS-B
Wed 04:12:04 PM 45.1660 -116.7110 303° West 479 551 38,000  Level FlightAware ADS-B
Wed 04:12:41 PM 45.2120 -116.8120 303° West 480 552 38,000  Level FlightAware ADS-B
Wed 04:13:15 PM 45.2520 -116.9010 303° West 480 552 38,000  Level FlightAware ADS-B
Wed 04:13:51 PM 45.2940 -116.9940 303° West 480 552 38,000  Level FlightAware ADS-B
Wed 04:14:27 PM 45.3380 -117.0930 302° West 484 557 38,000  Level FlightAware ADS-B
Wed 04:15:01 PM 45.3780 -117.1820 303° West 486 559 38,000  Level FlightAware ADS-B
Wed 04:15:46 PM 45.4260 -117.2900 302° West 486 559 38,000  Level FlightAware ADS-B
Wed 04:16:25 PM 45.4800 -117.4100 303° West 487 560 38,000  Level FlightAware ADS-B
Wed 04:17:03 PM 45.5240 -117.5080 303° West 488 562 38,000  Level FlightAware ADS-B
Wed 04:18:02 PM 45.5900 -117.6590 302° West 487 560 38,000  Level FlightAware ADS-B
Wed 04:18:36 PM 45.6360 -117.7630 302° West 483 556 38,000  Level FlightAware ADS-B
Wed 04:19:08 PM 45.6740 -117.8500 302° West 484 557 38,000  Level FlightAware ADS-B
Wed 04:19:46 PM 45.7190 -117.9530 302° West 481 554 38,000  Level FlightAware ADS-B
Wed 04:20:22 PM 45.7600 -118.0470 302° West 476 548 38,000  Level FlightAware ADS-B
Wed 04:20:58 PM 45.8030 -118.1470 302° West 475 547 38,000  Level FlightAware ADS-B
Wed 04:21:32 PM 45.8420 -118.2360 302° West 479 551 38,000  Level FlightAware ADS-B
Wed 04:22:04 PM 45.8800 -118.3240 302° West 481 554 38,000  Level FlightAware ADS-B
Wed 04:22:42 PM 45.9240 -118.4270 302° West 483 556 38,000  Level FlightAware ADS-B
Wed 04:23:18 PM 45.9670 -118.5270 302° West 487 560 38,000  Level FlightAware ADS-B
Wed 04:23:50 PM 46.0020 -118.6090 302° West 487 560 38,000  Level FlightAware ADS-B
Wed 04:24:26 PM 46.0450 -118.7100 302° West 486 559 38,000  Level FlightAware ADS-B
Wed 04:25:04 PM 46.0910 -118.8190 301° West 486 559 38,000  Level FlightAware ADS-B
Wed 04:25:50 PM 46.1380 -118.9300 301° West 485 558 38,000  Level FlightAware ADS-B
Wed 04:26:26 PM 46.1730 -119.0150 301° West 485 558 38,000  Level FlightAware ADS-B
Wed 04:27:06 PM 46.2310 -119.1520 302° West 485 558 38,000  Level FlightAware ADS-B
Wed 04:27:53 PM 46.2810 -119.2740 301° West 486 559 38,000  Level FlightAware ADS-B
Wed 04:28:19 PM 46.3167 -119.3590 301° West 487 560 38,000  Level FlightAware ADS-B
Wed 04:28:50 PM 46.3522 -119.4450 301° West 486 559 38,000  Level FlightAware ADS-B
Wed 04:29:20 PM 46.3867 -119.5280 301° West 486 559 38,000  Level FlightAware ADS-B
Wed 04:29:50 PM 46.4209 -119.6110 301° West 487 560 38,000  Level FlightAware ADS-B
Wed 04:30:20 PM 46.4560 -119.6970 301° West 488 562 38,000  Level FlightAware ADS-B
Wed 04:30:52 PM 46.4919 -119.7850 301° West 487 560 38,000  Level FlightAware ADS-B
Wed 04:31:34 PM 46.5409 -119.9050 301° West 486 559 38,000  Level FlightAware ADS-B
Wed 04:32:06 PM 46.5764 -119.9930 300° West 488 562 38,000  Level FlightAware ADS-B
Wed 04:32:36 PM 46.6113 -120.0790 301° West 486 559 38,000  Level FlightAware ADS-B
Wed 04:33:07 PM 46.6463 -120.1660 300° West 484 557 38,000  Level FlightAware ADS-B
Wed 04:33:38 PM 46.6810 -120.2520 300° West 483 556 38,000  Level FlightAware ADS-B
Wed 04:34:08 PM 46.7148 -120.3370 300° West 482 555 38,000  Level FlightAware ADS-B
Wed 04:34:39 PM 46.7497 -120.4240 300° West 483 556 38,000  Level FlightAware ADS-B
Wed 04:35:10 PM 46.7837 -120.5100 300° West 484 557 38,000  Level FlightAware ADS-B
Wed 04:35:40 PM 46.8179 -120.5960 300° West 488 562 38,000  Level FlightAware ADS-B
Wed 04:36:10 PM 46.8520 -120.6820 300° West 489 563 38,000  Level FlightAware ADS-B
Wed 04:36:41 PM 46.8863 -120.7690 300° West 488 562 38,000  Level FlightAware ADS-B
Wed 04:37:11 PM 46.9201 -120.8550 300° West 484 557 38,000  Level FlightAware ADS-B
Wed 04:37:42 PM 46.9539 -120.9410 300° West 481 554 38,000  Level FlightAware ADS-B
Wed 04:38:12 PM 46.9867 -121.0250 300° West 477 549 38,000  Level FlightAware ADS-B
Wed 04:38:42 PM 47.0194 -121.1090 300° West 478 550 38,000  Level FlightAware ADS-B
Wed 04:39:12 PM 47.0526 -121.1950 300° West 484 557 38,000  Level FlightAware ADS-B
Wed 04:39:42 PM 47.0860 -121.2810 300° West 485 558 38,000  Level FlightAware ADS-B
Wed 04:40:13 PM 47.1197 -121.3690 299° West 484 557 38,000  Level FlightAware ADS-B
Wed 04:40:44 PM 47.1530 -121.4560 299° West 483 556 38,000  Level FlightAware ADS-B
Wed 04:41:14 PM 47.1861 -121.5420 300° West 484 557 38,000  Level FlightAware ADS-B
Wed 04:41:44 PM 47.2191 -121.6280 299° West 487 560 38,000  Level FlightAware ADS-B
Wed 04:42:14 PM 47.2524 -121.7160 299° West 487 560 38,000  Level FlightAware ADS-B
Wed 04:42:44 PM 47.2851 -121.8030 299° West 485 558 38,000  Level FlightAware ADS-B
Wed 04:43:14 PM 47.3173 -121.8900 299° West 487 560 38,000  Level FlightAware ADS-B
Wed 04:43:45 PM 47.3505 -121.9780 299° West 488 562 38,000  Level FlightAware ADS-B
Wed 04:44:17 PM 47.3857 -122.0730 299° West 489 563 38,000  Level FlightAware ADS-B
Wed 04:44:48 PM 47.4188 -122.1620 299° West 489 563 38,000  Level FlightAware ADS-B
Wed 04:45:19 PM 47.4521 -122.2520 299° West 489 563 38,000  Level FlightAware ADS-B
Wed 04:45:49 PM 47.4844 -122.3400 299° West 488 562 38,000  Level FlightAware ADS-B
Wed 04:46:19 PM 47.5167 -122.4270 299° West 488 562 38,000  Level FlightAware ADS-B
Wed 04:46:49 PM 47.5490 -122.5160 298° West 487 560 38,000  Level FlightAware ADS-B
Wed 04:47:19 PM 47.5812 -122.6040 299° West 486 559 38,000  Level FlightAware ADS-B
Wed 04:47:49 PM 47.6131 -122.6920 298° West 486 559 38,000  Level FlightAware ADS-B
Wed 04:48:19 PM 47.6453 -122.7810 298° West 487 560 38,000  Level FlightAware ADS-B
Wed 04:48:53 PM 47.6812 -122.8800 298° West 486 559 38,000  Level FlightAware ADS-B
Wed 04:49:24 PM 47.7133 -122.9690 298° West 485 558 38,000  Level FlightAware ADS-B
Wed 04:49:56 PM 47.7477 -123.0650 298° West 484 557 38,000  Level FlightAware ADS-B
Wed 04:50:27 PM 47.7795 -123.1540 298° West 483 556 38,000  Level FlightAware ADS-B
Wed 04:50:57 PM 47.8110 -123.2430 298° West 485 558 38,000  Level FlightAware ADS-B
Wed 04:51:27 PM 47.8426 -123.3320 298° West 486 559 38,000  Level FlightAware ADS-B
Wed 04:51:58 PM 47.8743 -123.4210 298° West 487 560 38,000  Level FlightAware ADS-B
Wed 04:52:28 PM 47.9059 -123.5110 298° West 488 562 38,000  Level FlightAware ADS-B
Wed 04:52:58 PM 47.9374 -123.6000 298° West 488 562 38,000  Level FlightAware ADS-B
Wed 04:53:29 PM 47.9694 -123.6920 297° West 486 559 38,000  Level FlightAware ADS-B
Wed 04:53:59 PM 48.0008 -123.7820 298° West 487 560 38,000  Level FlightAware ADS-B
Wed 04:54:30 PM 48.0323 -123.8720 298° West 486 559 38,000  Level FlightAware ADS-B
Wed 04:55:00 PM 48.0632 -123.9620 297° West 486 559 38,000  Level FlightAware ADS-B
Wed 04:55:30 PM 48.0945 -124.0520 298° West 487 560 38,000  Level FlightAware ADS-B
Wed 04:56:00 PM 48.1254 -124.1420 297° West 489 563 38,000  Level FlightAware ADS-B
Wed 04:56:30 PM 48.1565 -124.2320 297° West 487 560 38,000  Level FlightAware ADS-B
Wed 04:57:00 PM 48.1872 -124.3230 297° West 487 560 38,000  Level FlightAware ADS-B
Wed 04:57:30 PM 48.2181 -124.4130 297° West 488 562 38,000  Level FlightAware ADS-B
Wed 04:58:01 PM 48.2493 -124.5050 297° West 488 562 38,000  Level FlightAware ADS-B
Wed 04:58:40 PM 48.2884 -124.6210 297° West 489 563 38,000  Level FlightAware ADS-B
Wed 04:59:10 PM 48.3198 -124.7150 297° West 488 562 38,000  Level FlightAware ADS-B
Wed 04:59:41 PM 48.3504 -124.8060 297° West 489 563 38,000  Level FlightAware ADS-B
Wed 05:00:23 PM 48.3938 -124.9360 297° West 490 564 38,000  Level FlightAware ADS-B
Wed 05:00:54 PM 48.4249 -125.0290 297° West 491 565 38,000  Level FlightAware ADS-B
Wed 05:01:34 PM 48.4646 -125.1520 296° West 491 565 38,000  Level FlightAware ADS-B
Wed 05:01:53 PM 48.4783 -125.2120 289° West 481 554 38,000  Level FlightAware ADS-B
Wed 05:02:11 PM 48.4874 -125.2710 283° West 475 547 38,000  Level FlightAware ADS-B
Wed 05:02:49 PM 48.5001 -125.3940 279° West 475 547 38,000  Level FlightAware ADS-B
Wed 05:03:24 PM 48.5110 -125.5060 278° West 474 545 38,000  Level FlightAware ADS-B
Wed 05:03:34 PM 48.5148 -125.5390 280° West 475 547 38,000  Level FlightAware ADS-B
Wed 05:04:29 PM 48.5332 -125.7210 279° West 474 545 38,000  Level FlightAware ADS-B
Wed 05:05:09 PM 48.5460 -125.8470 279° West 475 547 38,000  Level FlightAware ADS-B
Wed 05:05:46 PM 48.5570 -125.9670 278° West 477 549 38,000  Level FlightAware ADS-B
Wed 05:06:22 PM 48.5680 -126.0820 278° West 478 550 38,000  Level FlightAware ADS-B
Wed 05:07:07 PM 48.5830 -126.2360 278° West 478 550 38,000  Level FlightAware ADS-B
Wed 05:07:37 PM 48.5920 -126.3340 278° West 477 549 38,000  Level FlightAware ADS-B
Wed 05:08:17 PM 48.6050 -126.4630 279° West 477 549 38,000  Level FlightAware ADS-B
Wed 05:09:00 PM 48.6180 -126.6110 278° West 477 549 38,000  Level FlightAware ADS-B
Wed 05:09:37 PM 48.6280 -126.7230 278° West 478 550 38,000  Level FlightAware ADS-B
Wed 05:10:17 PM 48.6400 -126.8580 278° West 480 552 38,000  Level FlightAware ADS-B
Wed 05:10:52 PM 48.6490 -126.9540 278° West 480 552 38,000  Level FlightAware ADS-B
Wed 05:11:20 PM 48.6590 -127.0720 277° West 479 551 38,000  Level FlightAware ADS-B
Wed 05:12:00 PM 48.6680 -127.1850 277° West 479 551 38,000  Level FlightAware ADS-B
Wed 05:12:32 PM 48.6790 -127.3050 278° West 477 549 38,000  Level FlightAware ADS-B
Wed 05:13:08 PM 48.6890 -127.4180 278° West 477 549 38,000  Level FlightAware ADS-B
Wed 05:13:46 PM 48.7000 -127.5500 277° West 477 549 38,000  Level FlightAware ADS-B
Wed 05:14:23 PM 48.7100 -127.6710 277° West 481 554 38,000  Level FlightAware ADS-B
Wed 05:15:18 PM 48.7250 -127.8440 278° West 483 556 38,000  Level FlightAware ADS-B
Wed 05:15:54 PM 48.7340 -127.9470 278° West 483 556 38,000  Level FlightAware ADS-B
Wed 05:16:32 PM 48.7440 -128.0550 278° West 483 556 38,000  Level FlightAware ADS-B
Wed 05:17:10 PM 48.7540 -128.1640 278° West 483 556 38,000  Level FlightAware ADS-B
Wed 05:17:46 PM 48.7640 -128.2660 278° West 483 556 38,000  Level FlightAware ADS-B
Wed 05:18:21 PM 48.7730 -128.3660 278° West 483 556 38,000  Level FlightAware ADS-B
Wed 05:18:57 PM 48.7830 -128.4690 278° West 483 556 38,000  Level FlightAware ADS-B
Wed 05:19:33 PM 48.7920 -128.5720 278° West 483 556 38,000  Level FlightAware ADS-B
Wed 05:20:11 PM 48.8020 -128.6800 278° West 483 556 38,000  Level FlightAware ADS-B
Wed 05:20:47 PM 48.8120 -128.7830 278° West 483 556 38,000  Level FlightAware ADS-B
Wed 05:21:23 PM 48.8210 -128.8860 278° West 483 556 38,000  Level FlightAware ADS-B
Wed 05:22:00 PM 48.8310 -128.9920 278° West 483 556 38,000  Level FlightAware ADS-B
Wed 05:22:36 PM 48.8400 -129.0940 278° West 483 556 38,000  Level FlightAware ADS-B
Wed 05:23:13 PM 48.8500 -129.2000 278° West 483 556 38,000  Level FlightAware ADS-B
Wed 05:23:49 PM 48.8600 -129.3030 278° West 483 556 38,000  Level FlightAware ADS-B
Wed 05:24:23 PM 48.8690 -129.4000 278° West 483 556 38,000  Level FlightAware ADS-B
Wed 05:25:15 PM 48.8500 -129.8833 278° West 490 564 38,000  Level Vancouver Center
Wed 05:26:15 PM 48.8667 -130.1000 277° West 500 575 38,000  Level Vancouver Center
Wed 05:27:15 PM 48.8667 -130.3333 270° West 500 575 38,000  Level Vancouver Center
Wed 05:28:15 PM 48.8833 -130.5333 277° West 490 564 38,000  Level Vancouver Center
Wed 05:30:15 PM 48.9167 -130.9500 277° West 500 575 38,000  Level Vancouver Center
Wed 05:31:15 PM 48.9000 -131.1500 263° West 490 564 38,000  Level Vancouver Center
Wed 05:32:15 PM 48.9167 -131.3500 277° West 500 575 38,000  Level Vancouver Center
Wed 05:33:15 PM 48.9333 -131.5833 276° West 510 587 38,000  Level Vancouver Center
Wed 05:34:15 PM 48.9500 -131.7833 277° West 500 575 38,000  Level Vancouver Center
Wed 05:35:15 PM 48.9667 -132.0000 277° West 500 575 38,000  Level Vancouver Center
Wed 05:37:00 PM 48.9802 -132.3476 274° West  Level FlightAware Approximate
Wed 05:37:38 PM 49.0000 -132.4500 277° West 471 542 38,000  Level Oakland Oceanic (ODAPS)
Wed 05:38:05 PM 49.0000 -132.5500 277° West 471 542 38,000  Level Oakland Oceanic (ODAPS)
Wed 05:44:00 PM 49.0836 -133.7313 276° West 471 542 38,000  Level FlightAware Transoceanic
Wed 05:45:00 PM 49.0963 -133.9285 276° West 471 542 38,000  Level FlightAware Transoceanic
Wed 05:46:00 PM 49.1088 -134.1259 275° West 471 542 38,000  Level FlightAware Transoceanic
Wed 05:47:00 PM 49.1208 -134.3234 275° West 471 542 38,000  Level FlightAware Transoceanic
Wed 05:48:00 PM 49.1326 -134.5209 275° West 471 542 38,000  Level FlightAware Transoceanic
Wed 05:49:00 PM 49.1440 -134.7186 275° West 471 542 38,000  Level FlightAware Transoceanic
Wed 05:50:00 PM 49.1551 -134.9163 275° West 471 542 38,000  Level FlightAware Transoceanic
Wed 05:51:00 PM 49.1658 -135.1141 275° West 471 542 38,000  Level FlightAware Transoceanic
Wed 05:51:56 PM 49.1833 -135.4833 274° West 475 547 38,000  Level Oakland Oceanic (ODAPS)
Wed 05:52:00 PM 49.1762 -135.3120 275° West 471 542 38,000  Level FlightAware Transoceanic
Wed 05:53:00 PM 49.1863 -135.5100 274° West 471 542 38,000  Level FlightAware Transoceanic
Wed 05:54:00 PM 49.1960 -135.7081 274° West 471 542 38,000  Level FlightAware Transoceanic
Wed 05:55:00 PM 49.2054 -135.9062 274° West 471 542 38,000  Level FlightAware Transoceanic
Wed 05:56:00 PM 49.2144 -136.1044 274° West 471 542 38,000  Level FlightAware Transoceanic
Wed 05:57:00 PM 49.2231 -136.3027 274° West 471 542 38,000  Level FlightAware Transoceanic
Wed 05:58:00 PM 49.2377 -136.6915 273° West 475 547 38,000  Level FlightAware Transoceanic
Wed 05:59:00 PM 49.2456 -136.8931 273° West 475 547 38,000  Level FlightAware Transoceanic
Wed 06:00:00 PM 49.2531 -137.0947 273° West 475 547 38,000  Level FlightAware Transoceanic
Wed 06:01:00 PM 49.2602 -137.2965 273° West 475 547 38,000  Level FlightAware Transoceanic
Wed 06:02:00 PM 49.2670 -137.4982 273° West 475 547 38,000  Level FlightAware Transoceanic
Wed 06:03:00 PM 49.2734 -137.7001 273° West 475 547 38,000  Level FlightAware Transoceanic
Wed 06:04:00 PM 49.2795 -137.9020 273° West 475 547 38,000  Level FlightAware Transoceanic
Wed 06:05:00 PM 49.2852 -138.1039 272° West 475 547 38,000  Level FlightAware Transoceanic
Wed 06:05:52 PM 49.3000 -138.4333 272° West 480 552 38,000  Level Oakland Oceanic (ODAPS)
Wed 06:06:00 PM 49.2906 -138.3059 272° West 475 547 38,000  Level FlightAware Transoceanic
Wed 06:07:00 PM 49.2956 -138.5079 272° West 475 547 38,000  Level FlightAware Transoceanic
Wed 06:08:00 PM 49.3003 -138.7100 272° West 475 547 38,000  Level FlightAware Transoceanic
Wed 06:09:00 PM 49.3046 -138.9121 272° West 475 547 38,000  Level FlightAware Transoceanic
Wed 06:10:00 PM 49.3086 -139.1142 272° West 475 547 38,000  Level FlightAware Transoceanic
Wed 06:11:00 PM 49.3122 -139.3164 271° West 475 547 38,000  Level FlightAware Transoceanic
Wed 06:12:00 PM 49.3230 -139.6541 271° West 480 552 38,000  Level FlightAware Transoceanic
Wed 06:13:00 PM 49.3256 -139.8577 271° West 480 552 38,000  Level FlightAware Transoceanic
Wed 06:14:00 PM 49.3278 -140.0613 271° West 480 552 38,000  Level FlightAware Transoceanic
Wed 06:15:00 PM 49.3297 -140.2649 271° West 480 552 38,000  Level FlightAware Transoceanic
Wed 06:16:00 PM 49.3312 -140.4685 271° West 480 552 38,000  Level FlightAware Transoceanic
Wed 06:17:00 PM 49.3323 -140.6721 270° West 480 552 38,000  Level FlightAware Transoceanic
Wed 06:18:00 PM 49.3331 -140.8757 270° West 480 552 38,000  Level FlightAware Transoceanic
Wed 06:19:00 PM 49.3336 -141.0794 270° West 480 552 38,000  Level FlightAware Transoceanic
Wed 06:19:43 PM 49.3333 -141.3167 270° West 470 541 38,000  Level Oakland Oceanic (ODAPS)
Wed 06:20:00 PM 49.3336 -141.2830 270° West 480 552 38,000  Level FlightAware Transoceanic
Wed 06:21:00 PM 49.3334 -141.4867 270° West 480 552 38,000  Level FlightAware Transoceanic
Wed 06:22:00 PM 49.3327 -141.6903 270° West 480 552 38,000  Level FlightAware Transoceanic
Wed 06:23:00 PM 49.3317 -141.8939 269° West 480 552 38,000  Level FlightAware Transoceanic
Wed 06:24:00 PM 49.3304 -142.0976 269° West 480 552 38,000  Level FlightAware Transoceanic
Wed 06:25:00 PM 49.3281 -142.3309 269° West 470 541 38,000  Level FlightAware Transoceanic
Wed 06:26:00 PM 49.3260 -142.5337 269° West 470 541 38,000  Level FlightAware Transoceanic
Wed 06:27:00 PM 49.3236 -142.7365 269° West 470 541 38,000  Level FlightAware Transoceanic
Wed 06:28:00 PM 49.3208 -142.9392 269° West 470 541 38,000  Level FlightAware Transoceanic
Wed 06:29:00 PM 49.3176 -143.1420 269° West 470 541 38,000  Level FlightAware Transoceanic
Wed 06:30:00 PM 49.3141 -143.3447 268° West 470 541 38,000  Level FlightAware Transoceanic
Wed 06:31:00 PM 49.3102 -143.5474 268° West 470 541 38,000  Level FlightAware Transoceanic
Wed 06:32:00 PM 49.3060 -143.7500 268° West 470 541 38,000  Level FlightAware Transoceanic
Wed 06:33:00 PM 49.3014 -143.9526 268° West 470 541 38,000  Level FlightAware Transoceanic
Wed 06:33:36 PM 49.3000 -144.0667 268° West 447 514 38,000  Level Oakland Oceanic (ODAPS)
Wed 06:34:00 PM 49.2964 -144.1552 268° West 470 541 38,000  Level FlightAware Transoceanic
Wed 06:35:00 PM 49.2911 -144.3577 268° West 470 541 38,000  Level FlightAware Transoceanic
Wed 06:36:00 PM 49.2855 -144.5602 267° West 470 541 38,000  Level FlightAware Transoceanic
Wed 06:37:00 PM 49.2795 -144.7627 267° West 470 541 38,000  Level FlightAware Transoceanic
Wed 06:38:00 PM 49.2731 -144.9651 267° West 470 541 38,000  Level FlightAware Transoceanic
Wed 06:39:00 PM 49.2670 -145.1841 267° West 447 514 38,000  Level FlightAware Transoceanic
Wed 06:40:00 PM 49.2604 -145.3701 267° West 447 514 38,000  Level FlightAware Transoceanic
Wed 06:41:00 PM 49.2536 -145.5562 267° West 447 514 38,000  Level FlightAware Transoceanic
Wed 06:42:00 PM 49.2464 -145.7422 267° West 447 514 38,000  Level FlightAware Transoceanic
Wed 06:43:00 PM 49.2390 -145.9281 266° West 447 514 38,000  Level FlightAware Transoceanic
Wed 06:44:00 PM 49.2312 -146.1139 266° West 447 514 38,000  Level FlightAware Transoceanic
Wed 06:45:00 PM 49.2232 -146.2997 266° West 447 514 38,000  Level FlightAware Transoceanic
Wed 06:46:00 PM 49.2148 -146.4855 266° West 447 514 38,000  Level FlightAware Transoceanic
Wed 06:47:00 PM 49.2062 -146.6712 266° West 447 514 38,000  Level FlightAware Transoceanic
Wed 06:47:28 PM 49.2000 -146.7000 266° West 451 519 38,000  Level Oakland Oceanic (ODAPS)
Wed 06:48:00 PM 49.1973 -146.8568 266° West 447 514 38,000  Level FlightAware Transoceanic
Wed 06:49:00 PM 49.1880 -147.0423 266° West 447 514 38,000  Level FlightAware Transoceanic
Wed 06:50:00 PM 49.1785 -147.2278 265° West 447 514 38,000  Level FlightAware Transoceanic
Wed 06:51:00 PM 49.1687 -147.4132 265° West 447 514 38,000  Level FlightAware Transoceanic
Wed 06:52:00 PM 49.1585 -147.5985 265° West 447 514 38,000  Level FlightAware Transoceanic
Wed 06:53:00 PM 49.1438 -147.8029 265° West 451 519 38,000  Level FlightAware Transoceanic
Wed 06:54:00 PM 49.1334 -147.9864 265° West 451 519 38,000  Level FlightAware Transoceanic
Wed 06:55:00 PM 49.1227 -148.1699 265° West 451 519 38,000  Level FlightAware Transoceanic
Wed 06:56:00 PM 49.1118 -148.3533 265° West 451 519 38,000  Level FlightAware Transoceanic
Wed 06:57:00 PM 49.1005 -148.5367 265° West 451 519 38,000  Level FlightAware Transoceanic
Wed 06:58:00 PM 49.0890 -148.7199 264° West 451 519 38,000  Level FlightAware Transoceanic
Wed 06:59:00 PM 49.0771 -148.9030 264° West 451 519 38,000  Level FlightAware Transoceanic
Wed 07:00:00 PM 49.0650 -149.0861 264° West 451 519 38,000  Level FlightAware Transoceanic
Wed 07:01:00 PM 49.0526 -149.2691 264° West 451 519 38,000  Level FlightAware Transoceanic
Wed 07:01:20 PM 49.0500 -149.3500 264° West 450 518 38,000  Level Oakland Oceanic (ODAPS)
Wed 07:02:00 PM 49.0398 -149.4519 264° West 451 519 38,000  Level FlightAware Transoceanic
Wed 07:03:00 PM 49.0269 -149.6347 264° West 451 519 38,000  Level FlightAware Transoceanic
Wed 07:04:00 PM 49.0136 -149.8174 264° West 451 519 38,000  Level FlightAware Transoceanic
Wed 07:04:48 PM 49.0000 -150.0000 257° West 450 518 38,000  Level Oakland Oceanic (ODAPS)
Wed 07:05:00 PM 49.0000 -150.0000 257° West 451 519 38,000  Level FlightAware Transoceanic
Wed 07:06:00 PM 48.9721 -150.1850 257° West 451 519 38,000  Level FlightAware Transoceanic
Wed 07:07:00 PM 48.9439 -150.3699 257° West 450 518 38,000  Level FlightAware Transoceanic
Wed 07:08:00 PM 48.9153 -150.5545 257° West 450 518 38,000  Level FlightAware Transoceanic
Wed 07:09:00 PM 48.8865 -150.7389 257° West 450 518 38,000  Level FlightAware Transoceanic
Wed 07:10:00 PM 48.8574 -150.9231 256° West 450 518 38,000  Level FlightAware Transoceanic
Wed 07:11:00 PM 48.8248 -151.1272 256° West 450 518 38,000  Level FlightAware Transoceanic
Wed 07:12:00 PM 48.7946 -151.3143 256° West 450 518 38,000  Level FlightAware Transoceanic
Wed 07:13:00 PM 48.7640 -151.5011 256° West 450 518 38,000  Level FlightAware Transoceanic
Wed 07:14:00 PM 48.7331 -151.6877 256° West 450 518 38,000  Level FlightAware Transoceanic
Wed 07:15:00 PM 48.7020 -151.8741 256° West 450 518 38,000 845 Level FlightAware Transoceanic
Wed 07:15:11 PM 48.7000 -151.8667 256° West 440 506 39,000  Climbing Oakland Oceanic (ODAPS)
Wed 07:16:00 PM 48.6705 -152.0603 256° West 450 518 38,000 -550 Descending FlightAware Transoceanic
Wed 07:17:00 PM 48.6387 -152.2462 255° West 450 518 38,000  Level FlightAware Transoceanic
Wed 07:18:00 PM 48.6067 -152.4319 255° West 450 518 38,000  Level FlightAware Transoceanic
Wed 07:19:00 PM 48.5743 -152.6174 255° West 450 518 38,000  Level FlightAware Transoceanic
Wed 07:20:00 PM 48.5416 -152.8026 255° West 450 518 38,000 500 Level FlightAware Transoceanic
Wed 07:21:00 PM 48.5155 -152.9339 255° West 440 506 39,000 500 Climbing FlightAware Transoceanic
Wed 07:22:00 PM 48.4838 -153.1110 255° West 440 506 39,000  Level FlightAware Transoceanic
Wed 07:23:00 PM 48.4518 -153.2879 255° West 440 506 39,000  Level FlightAware Transoceanic
Wed 07:24:00 PM 48.4195 -153.4645 255° West 440 506 39,000  Level FlightAware Transoceanic
Wed 07:25:00 PM 48.3870 -153.6409 254° West 440 506 39,000  Level FlightAware Transoceanic
Wed 07:26:00 PM 48.3542 -153.8172 254° West 440 506 39,000  Level FlightAware Transoceanic
Wed 07:27:00 PM 48.3211 -153.9931 254° West 440 506 39,000  Level FlightAware Transoceanic
Wed 07:28:00 PM 48.2878 -154.1689 254° West 440 506 39,000  Level FlightAware Transoceanic
Wed 07:29:00 PM 48.2542 -154.3444 254° West 440 506 39,000  Level FlightAware Transoceanic
Wed 07:29:04 PM 48.2667 -154.2667 254° West 434 499 39,000  Level Oakland Oceanic (ODAPS)
Wed 07:30:00 PM 48.2203 -154.5197 254° West 440 506 39,000  Level FlightAware Transoceanic
Wed 07:31:00 PM 48.1862 -154.6947 254° West 440 506 39,000  Level FlightAware Transoceanic
Wed 07:32:00 PM 48.1518 -154.8696 253° West 440 506 39,000  Level FlightAware Transoceanic
Wed 07:33:00 PM 48.1172 -155.0441 253° West 440 506 39,000  Level FlightAware Transoceanic
Wed 07:34:00 PM 48.0822 -155.2185 253° West 440 506 39,000  Level FlightAware Transoceanic
Wed 07:35:00 PM 48.0641 -155.2983 253° West 434 499 39,000  Level FlightAware Transoceanic
Wed 07:36:00 PM 48.0294 -155.4695 253° West 434 499 39,000  Level FlightAware Transoceanic
Wed 07:37:00 PM 47.9945 -155.6404 253° West 434 499 39,000  Level FlightAware Transoceanic
Wed 07:38:00 PM 47.9594 -155.8111 253° West 434 499 39,000  Level FlightAware Transoceanic
Wed 07:39:00 PM 47.9240 -155.9816 253° West 434 499 39,000  Level FlightAware Transoceanic
Wed 07:40:00 PM 47.8883 -156.1518 253° West 434 499 39,000  Level FlightAware Transoceanic
Wed 07:41:00 PM 47.8524 -156.3217 252° West 434 499 39,000  Level FlightAware Transoceanic
Wed 07:42:00 PM 47.8162 -156.4915 252° West 434 499 39,000  Level FlightAware Transoceanic
Wed 07:42:55 PM 47.8000 -156.6167 252° West 431 496 39,000  Level Oakland Oceanic (ODAPS)
Wed 07:43:00 PM 47.7798 -156.6610 252° West 434 499 39,000  Level FlightAware Transoceanic
Wed 07:44:00 PM 47.7431 -156.8303 252° West 434 499 39,000  Level FlightAware Transoceanic
Wed 07:45:00 PM 47.7062 -156.9993 252° West 434 499 39,000  Level FlightAware Transoceanic
Wed 07:46:00 PM 47.6690 -157.1681 252° West 434 499 39,000  Level FlightAware Transoceanic
Wed 07:47:00 PM 47.6316 -157.3367 252° West 434 499 39,000  Level FlightAware Transoceanic
Wed 07:48:00 PM 47.5940 -157.5050 252° West 434 499 39,000  Level FlightAware Transoceanic
Wed 07:49:00 PM 47.5705 -157.6424 251° West 431 496 39,000  Level FlightAware Transoceanic
Wed 07:50:00 PM 47.5314 -157.8125 251° West 431 496 39,000  Level FlightAware Transoceanic
Wed 07:51:00 PM 47.4920 -157.9823 251° West 431 496 39,000  Level FlightAware Transoceanic
Wed 07:52:00 PM 47.4523 -158.1519 251° West 431 496 39,000  Level FlightAware Transoceanic
Wed 07:53:00 PM 47.4124 -158.3212 251° West 431 496 39,000  Level FlightAware Transoceanic
Wed 07:54:00 PM 47.3723 -158.4902 251° West 431 496 39,000  Level FlightAware Transoceanic
Wed 07:55:00 PM 47.3319 -158.6590 250° West 431 496 39,000  Level FlightAware Transoceanic
Wed 07:56:00 PM 47.2913 -158.8276 250° West 431 496 39,000  Level FlightAware Transoceanic
Wed 07:56:47 PM 47.2500 -159.0000 250° West 455 524 39,000  Level Oakland Oceanic (ODAPS)
Wed 07:57:00 PM 47.2504 -158.9958 250° West 431 496 39,000  Level FlightAware Transoceanic
Wed 07:58:00 PM 47.2093 -159.1638 250° West 431 496 39,000  Level FlightAware Transoceanic
Wed 07:59:00 PM 47.1679 -159.3316 250° West 431 496 39,000  Level FlightAware Transoceanic
Wed 08:00:00 PM 47.1263 -159.4991 250° West 431 496 39,000  Level FlightAware Transoceanic
Wed 08:01:00 PM 47.0844 -159.6663 250° West 431 496 39,000  Level FlightAware Transoceanic
Wed 08:02:00 PM 47.0423 -159.8333 250° West 431 496 39,000  Level FlightAware Transoceanic
Wed 08:03:00 PM 46.9552 -160.1845 250° West 455 524 39,000  Level FlightAware Transoceanic
Wed 08:04:00 PM 46.9100 -160.3687 250° West 455 524 39,000  Level FlightAware Transoceanic
Wed 08:05:00 PM 46.8646 -160.5526 250° West 455 524 39,000  Level FlightAware Transoceanic
Wed 08:06:00 PM 46.8188 -160.7361 250° West 455 524 39,000  Level FlightAware Transoceanic
Wed 08:07:00 PM 46.7728 -160.9194 250° West 455 524 39,000  Level FlightAware Transoceanic
Wed 08:08:00 PM 46.7265 -161.1023 250° West 455 524 39,000  Level FlightAware Transoceanic
Wed 08:09:00 PM 46.6799 -161.2849 250° West 455 524 39,000  Level FlightAware Transoceanic
Wed 08:10:00 PM 46.6329 -161.4672 249° West 455 524 39,000  Level FlightAware Transoceanic
Wed 08:11:00 PM 46.5858 -161.6492 249° West 455 524 39,000  Level FlightAware Transoceanic
Wed 08:11:17 PM 46.6333 -161.5000 249° West 504 580 39,000  Level Oakland Oceanic (ODAPS)
Wed 08:12:00 PM 46.5383 -161.8309 249° West 455 524 39,000  Level FlightAware Transoceanic
Wed 08:13:00 PM 46.4905 -162.0122 249° West 455 524 39,000  Level FlightAware Transoceanic
Wed 08:14:00 PM 46.4425 -162.1933 249° West 455 524 39,000  Level FlightAware Transoceanic
Wed 08:15:00 PM 46.3941 -162.3740 249° West 455 524 39,000  Level FlightAware Transoceanic
Wed 08:16:00 PM 46.3455 -162.5544 249° West 455 524 39,000  Level FlightAware Transoceanic
Wed 08:17:00 PM 46.2820 -162.8157 248° West 504 580 39,000  Level FlightAware Transoceanic
Wed 08:18:00 PM 46.2305 -163.0023 248° West 504 580 39,000  Level FlightAware Transoceanic
Wed 08:19:00 PM 46.1788 -163.1885 248° West 504 580 39,000  Level FlightAware Transoceanic
Wed 08:20:00 PM 46.1268 -163.3744 248° West 504 580 39,000  Level FlightAware Transoceanic
Wed 08:21:00 PM 46.0745 -163.5599 248° West 504 580 39,000  Level FlightAware Transoceanic
Wed 08:22:00 PM 46.0219 -163.7451 248° West 504 580 39,000  Level FlightAware Transoceanic
Wed 08:23:00 PM 45.9689 -163.9299 248° West 504 580 39,000  Level FlightAware Transoceanic
Wed 08:24:00 PM 45.9157 -164.1143 247° West 504 580 39,000  Level FlightAware Transoceanic
Wed 08:25:00 PM 45.8622 -164.2985 247° West 504 580 39,000  Level FlightAware Transoceanic
Wed 08:25:33 PM 45.9333 -164.0500 247° West 508 585 39,000  Level Oakland Oceanic (ODAPS)
Wed 08:26:00 PM 45.8084 -164.4822 247° West 504 580 39,000  Level FlightAware Transoceanic
Wed 08:27:00 PM 45.7543 -164.6656 247° West 504 580 39,000  Level FlightAware Transoceanic
Wed 08:28:00 PM 45.6999 -164.8486 247° West 504 580 39,000  Level FlightAware Transoceanic
Wed 08:29:00 PM 45.6452 -165.0313 247° West 504 580 39,000  Level FlightAware Transoceanic
Wed 08:30:00 PM 45.5902 -165.2136 247° West 504 580 39,000  Level FlightAware Transoceanic
Wed 08:31:00 PM 45.5494 -165.3456 247° West 508 585 39,000  Level FlightAware Transoceanic
Wed 08:32:00 PM 45.4934 -165.5292 246° West 508 585 39,000  Level FlightAware Transoceanic
Wed 08:33:00 PM 45.4370 -165.7125 246° West 508 585 39,000  Level FlightAware Transoceanic
Wed 08:34:00 PM 45.3804 -165.8954 246° West 508 585 39,000  Level FlightAware Transoceanic
Wed 08:35:00 PM 45.3235 -166.0779 246° West 508 585 39,000  Level FlightAware Transoceanic
Wed 08:36:00 PM 45.2663 -166.2600 246° West 508 585 39,000  Level FlightAware Transoceanic
Wed 08:37:00 PM 45.2088 -166.4418 246° West 508 585 39,000  Level FlightAware Transoceanic
Wed 08:38:00 PM 45.1510 -166.6232 246° West 508 585 39,000  Level FlightAware Transoceanic
Wed 08:38:30 PM 45.1500 -166.6000 246° West 515 593 39,000  Level Oakland Oceanic (ODAPS)
Wed 08:39:00 PM 45.0929 -166.8043 245° Southwest 508 585 39,000  Level FlightAware Transoceanic
Wed 08:40:00 PM 45.0346 -166.9850 245° Southwest 508 585 39,000  Level FlightAware Transoceanic
Wed 08:41:00 PM 44.9759 -167.1653 245° Southwest 508 585 39,000  Level FlightAware Transoceanic
Wed 08:42:00 PM 44.9170 -167.3452 245° Southwest 508 585 39,000  Level FlightAware Transoceanic
Wed 08:43:00 PM 44.8578 -167.5248 245° Southwest 508 585 39,000  Level FlightAware Transoceanic
Wed 08:44:00 PM 44.7978 -167.6882 245° Southwest 515 593 39,000  Level FlightAware Transoceanic
Wed 08:45:00 PM 44.7381 -167.8683 245° Southwest 515 593 39,000  Level FlightAware Transoceanic
Wed 08:46:00 PM 44.6781 -168.0480 245° Southwest 515 593 39,000  Level FlightAware Transoceanic
Wed 08:47:00 PM 44.6179 -168.2273 245° Southwest 515 593 39,000  Level FlightAware Transoceanic
Wed 08:48:00 PM 44.5573 -168.4062 245° Southwest 515 593 39,000  Level FlightAware Transoceanic
Wed 08:49:00 PM 44.4965 -168.5848 244° Southwest 515 593 39,000  Level FlightAware Transoceanic
Wed 08:50:00 PM 44.4354 -168.7630 244° Southwest 515 593 39,000  Level FlightAware Transoceanic
Wed 08:51:00 PM 44.3740 -168.9409 244° Southwest 515 593 39,000  Level FlightAware Transoceanic
Wed 08:52:00 PM 44.3124 -169.1183 244° Southwest 515 593 39,000  Level FlightAware Transoceanic
Wed 08:53:00 PM 44.2504 -169.2954 244° Southwest 515 593 39,000  Level FlightAware Transoceanic
Wed 08:53:29 PM 44.3000 -169.1333 245° Southwest 524 603 39,000  Level Oakland Oceanic (ODAPS)
Wed 08:54:00 PM 44.1882 -169.4721 244° Southwest 515 593 39,000  Level FlightAware Transoceanic
Wed 08:55:00 PM 44.1258 -169.6484 244° Southwest 515 593 39,000  Level FlightAware Transoceanic
Wed 08:56:00 PM 44.0630 -169.8244 244° Southwest 515 593 39,000  Level FlightAware Transoceanic
Wed 08:57:00 PM 44.0000 -170.0000 258° West 515 593 39,000  Level FlightAware Transoceanic
Wed 08:58:00 PM 43.9699 -170.1981 258° West 515 593 39,000  Level FlightAware Transoceanic
Wed 08:58:00 PM 43.9667 -170.2000 258° West 523 602 39,000  Level Oakland Oceanic (ODAPS)
Wed 08:59:00 PM 43.9395 -170.3961 258° West 524 603 39,000  Level FlightAware Transoceanic
Wed 09:00:00 PM 43.9088 -170.5938 258° West 524 603 39,000  Level FlightAware Transoceanic
Wed 09:01:00 PM 43.8777 -170.7914 258° West 524 603 39,000  Level FlightAware Transoceanic
Wed 09:02:00 PM 43.8462 -170.9887 257° West 524 603 39,000  Level FlightAware Transoceanic
Wed 09:03:00 PM 43.8145 -171.1858 257° West 524 603 39,000  Level FlightAware Transoceanic
Wed 09:04:00 PM 43.7794 -171.3843 257° West 523 602 39,000  Level FlightAware Transoceanic
Wed 09:05:00 PM 43.7471 -171.5809 257° West 523 602 39,000  Level FlightAware Transoceanic
Wed 09:06:00 PM 43.7143 -171.7773 257° West 523 602 39,000  Level FlightAware Transoceanic
Wed 09:06:08 PM 43.7167 -171.7833 257° West 523 602 39,000  Level Oakland Oceanic (ODAPS)
Wed 09:07:00 PM 43.6813 -171.9736 257° West 523 602 39,000  Level FlightAware Transoceanic
Wed 09:08:00 PM 43.6479 -172.1696 257° West 523 602 39,000  Level FlightAware Transoceanic
Wed 09:09:00 PM 43.6142 -172.3654 257° West 523 602 39,000  Level FlightAware Transoceanic
Wed 09:10:00 PM 43.5801 -172.5609 256° West 523 602 39,000  Level FlightAware Transoceanic
Wed 09:11:00 PM 43.5457 -172.7562 256° West 523 602 39,000  Level FlightAware Transoceanic
Wed 09:12:00 PM 43.5129 -172.9565 256° West 523 602 39,000  Level FlightAware Transoceanic
Wed 09:13:00 PM 43.4778 -173.1513 256° West 523 602 39,000  Level FlightAware Transoceanic
Wed 09:14:00 PM 43.4423 -173.3458 256° West 523 602 39,000  Level FlightAware Transoceanic
Wed 09:15:00 PM 43.4066 -173.5401 256° West 523 602 39,000  Level FlightAware Transoceanic
Wed 09:16:00 PM 43.3704 -173.7342 256° West 523 602 39,000  Level FlightAware Transoceanic
Wed 09:17:00 PM 43.3340 -173.9280 255° West 523 602 39,000  Level FlightAware Transoceanic
Wed 09:18:00 PM 43.2972 -174.1216 255° West 523 602 39,000  Level FlightAware Transoceanic
Wed 09:19:00 PM 43.2602 -174.3150 255° West 523 602 39,000  Level FlightAware Transoceanic
Wed 09:20:00 PM 43.2227 -174.5081 255° West 523 602 39,000  Level FlightAware Transoceanic
Wed 09:20:08 PM 43.2333 -174.4667 255° West 522 601 39,000  Level Oakland Oceanic (ODAPS)
Wed 09:21:00 PM 43.1850 -174.7010 255° West 523 602 39,000  Level FlightAware Transoceanic
Wed 09:22:00 PM 43.1469 -174.8936 255° West 523 602 39,000  Level FlightAware Transoceanic
Wed 09:23:00 PM 43.1085 -175.0860 255° West 523 602 39,000  Level FlightAware Transoceanic
Wed 09:24:00 PM 43.0698 -175.2782 255° West 523 602 39,000  Level FlightAware Transoceanic
Wed 09:25:00 PM 43.0308 -175.4701 254° West 523 602 39,000  Level FlightAware Transoceanic
Wed 09:26:00 PM 43.0002 -175.6293 254° West 522 601 39,000  Level FlightAware Transoceanic
Wed 09:27:00 PM 42.9602 -175.8221 254° West 522 601 39,000  Level FlightAware Transoceanic
Wed 09:28:00 PM 42.9199 -176.0148 254° West 522 601 39,000  Level FlightAware Transoceanic
Wed 09:29:00 PM 42.8792 -176.2072 254° West 522 601 39,000  Level FlightAware Transoceanic
Wed 09:30:00 PM 42.8383 -176.3993 254° West 522 601 39,000  Level FlightAware Transoceanic
Wed 09:31:00 PM 42.7970 -176.5912 254° West 522 601 39,000  Level FlightAware Transoceanic
Wed 09:32:00 PM 42.7554 -176.7828 253° West 522 601 39,000  Level FlightAware Transoceanic
Wed 09:33:00 PM 42.7135 -176.9742 253° West 522 601 39,000  Level FlightAware Transoceanic
Wed 09:33:52 PM 42.6833 -177.1000 253° West 526 605 39,000  Level Oakland Oceanic (ODAPS)
Wed 09:34:00 PM 42.6712 -177.1653 253° West 522 601 39,000  Level FlightAware Transoceanic
Wed 09:35:00 PM 42.6286 -177.3561 253° West 522 601 39,000  Level FlightAware Transoceanic
Wed 09:36:00 PM 42.5858 -177.5467 253° West 522 601 39,000  Level FlightAware Transoceanic
Wed 09:37:00 PM 42.5426 -177.7370 253° West 522 601 39,000  Level FlightAware Transoceanic
Wed 09:38:00 PM 42.4991 -177.9271 253° West 522 601 39,000  Level FlightAware Transoceanic
Wed 09:39:00 PM 42.4552 -178.1169 253° West 522 601 39,000  Level FlightAware Transoceanic
Wed 09:40:00 PM 42.4188 -178.2675 253° West 526 605 39,000  Level FlightAware Transoceanic
Wed 09:41:00 PM 42.3735 -178.4612 252° West 526 605 39,000  Level FlightAware Transoceanic
Wed 09:42:00 PM 42.3280 -178.6545 252° West 526 605 39,000  Level FlightAware Transoceanic
Wed 09:43:00 PM 42.2821 -178.8476 252° West 526 605 39,000  Level FlightAware Transoceanic
Wed 09:44:00 PM 42.2359 -179.0404 252° West 526 605 39,000  Level FlightAware Transoceanic
Wed 09:45:00 PM 42.1893 -179.2329 252° West 526 605 39,000  Level FlightAware Transoceanic
Wed 09:46:00 PM 42.1425 -179.4251 252° West 526 605 39,000  Level FlightAware Transoceanic
Wed 09:47:00 PM 42.0953 -179.6170 252° West 526 605 39,000 577 Level FlightAware Transoceanic
Wed 09:47:44 PM 42.0667 -179.7167 253° West 529 609 40,000  Climbing Oakland Oceanic (ODAPS)
Wed 09:48:00 PM 42.0478 -179.8087 251° West 526 605 39,000 -789 Descending FlightAware Transoceanic
Wed 09:49:00 PM 42.0000 -180.0000 258° West 526 605 39,000 779 Level FlightAware Transoceanic
Wed 09:49:17 PM 42.0000 180.0000 258° West 528 608 40,000  Climbing Oakland Oceanic (ODAPS)
Wed 09:50:00 PM 41.9715 179.8130 258° West 526 605 39,000 -583 Descending FlightAware Transoceanic
Wed 09:51:00 PM 41.9427 179.6262 258° West 526 605 39,000  Level FlightAware Transoceanic
Wed 09:52:00 PM 41.9136 179.4396 258° West 526 605 39,000  Level FlightAware Transoceanic
Wed 09:53:00 PM 41.8843 179.2531 258° West 526 605 39,000 500 Level FlightAware Transoceanic
Wed 09:54:00 PM 41.8546 179.0669 258° West 529 609 40,000 500 Climbing FlightAware Transoceanic
Wed 09:55:00 PM 41.8177 178.8387 258° West 528 608 40,000  Level FlightAware Transoceanic
Wed 09:56:00 PM 41.7862 178.6457 258° West 528 608 40,000  Level FlightAware Transoceanic
Wed 09:57:00 PM 41.7544 178.4530 257° West 528 608 40,000  Level FlightAware Transoceanic
Wed 09:58:00 PM 41.7222 178.2605 257° West 528 608 40,000  Level FlightAware Transoceanic
Wed 09:59:00 PM 41.6898 178.0682 257° West 528 608 40,000  Level FlightAware Transoceanic
Wed 10:00:00 PM 41.6570 177.8760 257° West 528 608 40,000  Level FlightAware Transoceanic
Wed 10:01:00 PM 41.6238 177.6841 257° West 528 608 40,000  Level FlightAware Transoceanic
Wed 10:01:36 PM 41.6167 177.6333 257° West 528 608 40,000  Level Oakland Oceanic (ODAPS)
Wed 10:02:00 PM 41.5904 177.4924 257° West 528 608 40,000  Level FlightAware Transoceanic
Wed 10:03:00 PM 41.5566 177.3008 257° West 528 608 40,000  Level FlightAware Transoceanic
Wed 10:04:00 PM 41.5226 177.1095 257° West 528 608 40,000  Level FlightAware Transoceanic
Wed 10:05:00 PM 41.4882 176.9183 256° West 528 608 40,000  Level FlightAware Transoceanic
Wed 10:06:00 PM 41.4535 176.7274 256° West 528 608 40,000  Level FlightAware Transoceanic
Wed 10:07:00 PM 41.4119 176.4936 256° West 528 608 40,000  Level FlightAware Transoceanic
Wed 10:08:00 PM 41.3767 176.3043 256° West 528 608 40,000  Level FlightAware Transoceanic
Wed 10:09:00 PM 41.3412 176.1153 256° West 528 608 40,000  Level FlightAware Transoceanic
Wed 10:10:00 PM 41.3053 175.9265 256° West 528 608 40,000  Level FlightAware Transoceanic
Wed 10:11:00 PM 41.2692 175.7378 256° West 528 608 40,000  Level FlightAware Transoceanic
Wed 10:12:00 PM 41.2327 175.5494 256° West 528 608 40,000  Level FlightAware Transoceanic
Wed 10:13:00 PM 41.1960 175.3612 255° West 528 608 40,000  Level FlightAware Transoceanic
Wed 10:14:00 PM 41.1589 175.1732 255° West 528 608 40,000  Level FlightAware Transoceanic
Wed 10:15:00 PM 41.1216 174.9854 255° West 528 608 40,000  Level FlightAware Transoceanic
Wed 10:15:28 PM 41.1167 175.0000 255° West 528 608 40,000  Level Oakland Oceanic (ODAPS)
Wed 10:16:00 PM 41.0839 174.7978 255° West 528 608 40,000  Level FlightAware Transoceanic
Wed 10:17:00 PM 41.0459 174.6105 255° West 528 608 40,000  Level FlightAware Transoceanic
Wed 10:18:00 PM 41.0076 174.4234 255° West 528 608 40,000  Level FlightAware Transoceanic
Wed 10:19:00 PM 40.9690 174.2364 255° West 528 608 40,000  Level FlightAware Transoceanic
Wed 10:20:00 PM 40.9301 174.0497 255° West 528 608 40,000  Level FlightAware Transoceanic
Wed 10:21:00 PM 40.8873 173.8746 255° West 528 608 40,000  Level FlightAware Transoceanic
Wed 10:22:00 PM 40.8480 173.6878 254° West 528 608 40,000  Level FlightAware Transoceanic
Wed 10:23:00 PM 40.8084 173.5013 254° West 528 608 40,000  Level FlightAware Transoceanic
Wed 10:24:00 PM 40.7685 173.3149 254° West 528 608 40,000  Level FlightAware Transoceanic
Wed 10:25:00 PM 40.7283 173.1288 254° West 528 608 40,000  Level FlightAware Transoceanic
Wed 10:26:00 PM 40.6878 172.9429 254° West 528 608 40,000  Level FlightAware Transoceanic
Wed 10:27:00 PM 40.6470 172.7572 254° West 528 608 40,000  Level FlightAware Transoceanic
Wed 10:28:00 PM 40.6059 172.5718 254° West 528 608 40,000  Level FlightAware Transoceanic
Wed 10:29:00 PM 40.5646 172.3866 254° West 528 608 40,000  Level FlightAware Transoceanic
Wed 10:29:19 PM 40.5833 172.4500 253° West 522 601 40,000  Level Oakland Oceanic (ODAPS)
Wed 10:30:00 PM 40.5229 172.2016 253° West 528 608 40,000  Level FlightAware Transoceanic
Wed 10:31:00 PM 40.4809 172.0168 253° West 528 608 40,000  Level FlightAware Transoceanic
Wed 10:32:00 PM 40.4386 171.8323 253° West 528 608 40,000  Level FlightAware Transoceanic
Wed 10:33:00 PM 40.3961 171.6480 253° West 528 608 40,000  Level FlightAware Transoceanic
Wed 10:34:00 PM 40.3532 171.4639 253° West 528 608 40,000  Level FlightAware Transoceanic
Wed 10:35:00 PM 40.3397 171.3948 253° West 522 601 40,000  Level FlightAware Transoceanic
Wed 10:36:00 PM 40.2981 171.2197 253° West 522 601 40,000  Level FlightAware Transoceanic
Wed 10:37:00 PM 40.2563 171.0448 253° West 522 601 40,000  Level FlightAware Transoceanic
Wed 10:38:00 PM 40.2143 170.8701 252° West 522 601 40,000  Level FlightAware Transoceanic
Wed 10:39:00 PM 40.1719 170.6957 252° West 522 601 40,000  Level FlightAware Transoceanic
Wed 10:40:00 PM 40.1293 170.5214 252° West 522 601 40,000  Level FlightAware Transoceanic
Wed 10:41:00 PM 40.0865 170.3474 252° West 522 601 40,000  Level FlightAware Transoceanic
Wed 10:42:00 PM 40.0434 170.1736 252° West 522 601 40,000  Level FlightAware Transoceanic
Wed 10:43:00 PM 40.0000 170.0000 266° West 522 601 40,000  Level FlightAware Transoceanic
Wed 10:43:21 PM 40.0000 170.0000 266° West 484 557 40,000  Level Oakland Oceanic (ODAPS)
Wed 10:44:00 PM 39.9903 169.8284 266° West 522 601 40,000  Level FlightAware Transoceanic
Wed 10:45:00 PM 39.9803 169.6569 266° West 522 601 40,000  Level FlightAware Transoceanic
Wed 10:46:00 PM 39.9700 169.4854 265° West 522 601 40,000  Level FlightAware Transoceanic
Wed 10:47:00 PM 39.9595 169.3140 265° West 522 601 40,000  Level FlightAware Transoceanic
Wed 10:48:00 PM 39.9488 169.1426 265° West 522 601 40,000  Level FlightAware Transoceanic
Wed 10:49:00 PM 39.9366 168.9536 265° West 484 557 40,000  Level FlightAware Transoceanic
Wed 10:50:00 PM 39.9252 168.7794 265° West 484 557 40,000  Level FlightAware Transoceanic
Wed 10:51:00 PM 39.9134 168.6052 265° West 484 557 40,000  Level FlightAware Transoceanic
Wed 10:52:00 PM 39.9015 168.4311 265° West 484 557 40,000  Level FlightAware Transoceanic
Wed 10:53:00 PM 39.8892 168.2571 265° West 484 557 40,000  Level FlightAware Transoceanic
Wed 10:54:00 PM 39.8767 168.0831 265° West 484 557 40,000  Level FlightAware Transoceanic
Wed 10:55:00 PM 39.8639 167.9092 264° West 484 557 40,000  Level FlightAware Transoceanic
Wed 10:56:00 PM 39.8509 167.7354 264° West 484 557 40,000  Level FlightAware Transoceanic
Wed 10:57:00 PM 39.8376 167.5616 264° West 484 557 40,000  Level FlightAware Transoceanic
Wed 10:57:04 PM 39.8333 167.5500 264° West 470 541 40,000  Level Oakland Oceanic (ODAPS)
Wed 10:58:00 PM 39.8240 167.3879 264° West 484 557 40,000  Level FlightAware Transoceanic
Wed 10:59:00 PM 39.8102 167.2143 264° West 484 557 40,000  Level FlightAware Transoceanic
Wed 11:00:00 PM 39.7962 167.0407 264° West 484 557 40,000  Level FlightAware Transoceanic
Wed 11:01:00 PM 39.7818 166.8672 264° West 484 557 40,000  Level FlightAware Transoceanic
Wed 11:02:00 PM 39.7673 166.6938 264° West 484 557 40,000  Level FlightAware Transoceanic
Wed 11:03:00 PM 39.7506 166.5336 264° West 470 541 40,000  Level FlightAware Transoceanic
Wed 11:04:00 PM 39.7360 166.3644 264° West 470 541 40,000  Level FlightAware Transoceanic
Wed 11:05:00 PM 39.7211 166.1953 263° West 470 541 40,000  Level FlightAware Transoceanic
Wed 11:06:00 PM 39.7059 166.0263 263° West 470 541 40,000  Level FlightAware Transoceanic
Wed 11:07:00 PM 39.6906 165.8574 263° West 470 541 40,000  Level FlightAware Transoceanic
Wed 11:08:00 PM 39.6749 165.6885 263° West 470 541 40,000  Level FlightAware Transoceanic
Wed 11:09:00 PM 39.6591 165.5197 263° West 470 541 40,000  Level FlightAware Transoceanic
Wed 11:10:00 PM 39.6429 165.3510 263° West 470 541 40,000 526 Level FlightAware Transoceanic
Wed 11:10:54 PM 39.6333 165.1833 263° West 462 532 41,000  Climbing Oakland Oceanic (ODAPS)
Wed 11:11:00 PM 39.6266 165.1824 263° West 470 541 40,000 -909 Descending FlightAware Transoceanic
Wed 11:12:00 PM 39.6100 165.0139 263° West 470 541 40,000  Level FlightAware Transoceanic
Wed 11:13:00 PM 39.5931 164.8454 263° West 470 541 40,000  Level FlightAware Transoceanic
Wed 11:14:00 PM 39.5760 164.6770 262° West 470 541 40,000  Level FlightAware Transoceanic
Wed 11:15:00 PM 39.5587 164.5087 262° West 470 541 40,000  Level FlightAware Transoceanic
Wed 11:16:00 PM 39.5411 164.3405 262° West 470 541 40,000 500 Level FlightAware Transoceanic
Wed 11:17:00 PM 39.5288 164.1730 262° West 462 532 41,000 500 Climbing FlightAware Transoceanic
Wed 11:18:00 PM 39.5105 164.0049 262° West 462 532 41,000  Level FlightAware Transoceanic
Wed 11:19:00 PM 39.4920 163.8369 262° West 462 532 41,000  Level FlightAware Transoceanic
Wed 11:20:00 PM 39.4732 163.6690 262° West 462 532 41,000  Level FlightAware Transoceanic
Wed 11:21:00 PM 39.4542 163.5012 262° West 462 532 41,000  Level FlightAware Transoceanic
Wed 11:22:00 PM 39.4350 163.3335 261° West 462 532 41,000  Level FlightAware Transoceanic
Wed 11:23:00 PM 39.4155 163.1659 261° West 462 532 41,000  Level FlightAware Transoceanic
Wed 11:24:00 PM 39.3958 162.9983 261° West 462 532 41,000  Level FlightAware Transoceanic
Wed 11:25:00 PM 39.3758 162.8309 261° West 462 532 41,000  Level FlightAware Transoceanic
Wed 11:26:00 PM 39.3556 162.6636 261° West 462 532 41,000  Level FlightAware Transoceanic
Wed 11:27:00 PM 39.3352 162.4963 261° West 462 532 41,000  Level FlightAware Transoceanic
Wed 11:28:00 PM 39.3145 162.3292 261° West 462 532 41,000  Level FlightAware Transoceanic
Wed 11:29:00 PM 39.2936 162.1621 261° West 462 532 41,000  Level FlightAware Transoceanic
Wed 11:30:00 PM 39.2724 161.9952 261° West 462 532 41,000  Level FlightAware Transoceanic
Wed 11:31:00 PM 39.2510 161.8283 261° West 462 532 41,000  Level FlightAware Transoceanic
Wed 11:32:00 PM 39.2294 161.6616 260° West 462 532 41,000  Level FlightAware Transoceanic
Wed 11:33:00 PM 39.2075 161.4949 260° West 462 532 41,000  Level FlightAware Transoceanic
Wed 11:34:00 PM 39.1854 161.3284 260° West 462 532 41,000  Level FlightAware Transoceanic
Wed 11:35:00 PM 39.1630 161.1620 260° West 462 532 41,000  Level FlightAware Transoceanic
Wed 11:36:00 PM 39.1404 160.9957 260° West 462 532 41,000  Level FlightAware Transoceanic
Wed 11:37:00 PM 39.1176 160.8294 260° West 462 532 41,000  Level FlightAware Transoceanic
Wed 11:38:00 PM 39.0946 160.6633 260° West 462 532 41,000  Level FlightAware Transoceanic
Wed 11:39:00 PM 39.0713 160.4973 260° West 462 532 41,000  Level FlightAware Transoceanic
Wed 11:40:00 PM 39.0478 160.3314 260° West 462 532 41,000  Level FlightAware Transoceanic
Wed 11:41:00 PM 39.0240 160.1657 259° West 462 532 41,000  Level FlightAware Transoceanic
Wed 11:42:00 PM 39.0000 160.0000 259° West 462 532 41,000  Level FlightAware Transoceanic
Wed 11:43:00 PM 38.9765 159.8469 259° West 462 532 41,000  Level FlightAware Transoceanic
Wed 11:44:00 PM 38.9528 159.6940 259° West 462 532 41,000  Level FlightAware Transoceanic
Wed 11:45:00 PM 38.9289 159.5411 259° West 462 532 41,000  Level FlightAware Transoceanic
Wed 11:46:00 PM 38.9048 159.3884 258° West 462 532 41,000  Level FlightAware Transoceanic
Wed 11:47:00 PM 38.8805 159.2357 258° West 462 532 41,000  Level FlightAware Transoceanic
Wed 11:48:00 PM 38.8560 159.0831 258° West 462 532 41,000  Level FlightAware Transoceanic
Wed 11:49:00 PM 38.8314 158.9307 258° West 462 532 41,000  Level FlightAware Transoceanic
Wed 11:50:00 PM 38.8065 158.7784 258° West 462 532 41,000  Level FlightAware Transoceanic
Wed 11:51:00 PM 38.7814 158.6261 258° West 462 532 41,000  Level FlightAware Transoceanic
Wed 11:52:00 PM 38.7561 158.4740 258° West 462 532 41,000  Level FlightAware Transoceanic
Wed 11:53:00 PM 38.7306 158.3220 258° West 462 532 41,000  Level FlightAware Transoceanic
Wed 11:54:00 PM 38.7050 158.1701 258° West 462 532 41,000  Level FlightAware Transoceanic
Wed 11:55:00 PM 38.6791 158.0183 258° West 462 532 41,000  Level FlightAware Transoceanic
Wed 11:56:00 PM 38.6530 157.8666 258° West 462 532 41,000  Level FlightAware Transoceanic
Wed 11:57:00 PM 38.6268 157.7150 257° West 462 532 41,000  Level FlightAware Transoceanic
Wed 11:58:00 PM 38.6003 157.5636 257° West 462 532 41,000  Level FlightAware Transoceanic
Wed 11:59:00 PM 38.5737 157.4122 257° West 462 532 41,000  Level FlightAware Transoceanic
Thu 12:00:00 AM 38.5468 157.2610 257° West 462 532 41,000  Level FlightAware Transoceanic
Thu 12:01:00 AM 38.5198 157.1099 257° West 462 532 41,000  Level FlightAware Transoceanic
Thu 12:02:00 AM 38.4925 156.9588 257° West 462 532 41,000  Level FlightAware Transoceanic
Thu 12:03:00 AM 38.4651 156.8080 257° West 462 532 41,000  Level FlightAware Transoceanic
Thu 12:04:00 AM 38.4375 156.6572 257° West 462 532 41,000  Level FlightAware Transoceanic
Thu 12:05:00 AM 38.4096 156.5065 257° West 462 532 41,000  Level FlightAware Transoceanic
Thu 12:06:00 AM 38.3816 156.3560 257° West 462 532 41,000  Level FlightAware Transoceanic
Thu 12:07:00 AM 38.3534 156.2055 257° West 462 532 41,000  Level FlightAware Transoceanic
Thu 12:08:00 AM 38.3251 156.0552 256° West 462 532 41,000  Level FlightAware Transoceanic
Thu 12:09:00 AM 38.2965 155.9050 256° West 462 532 41,000  Level FlightAware Transoceanic
Thu 12:10:00 AM 38.2677 155.7549 256° West 462 532 41,000  Level FlightAware Transoceanic
Thu 12:11:00 AM 38.2387 155.6050 256° West 462 532 41,000  Level FlightAware Transoceanic
Thu 12:12:00 AM 38.2096 155.4551 256° West 462 532 41,000  Level FlightAware Transoceanic
Thu 12:13:00 AM 38.1802 155.3054 256° West 462 532 41,000  Level FlightAware Transoceanic
Thu 12:14:00 AM 38.1507 155.1558 256° West 462 532 41,000  Level FlightAware Transoceanic
Thu 12:15:00 AM 38.1209 155.0063 256° West 462 532 41,000  Level FlightAware Transoceanic
Thu 12:16:00 AM 38.0910 154.8570 256° West 462 532 41,000  Level FlightAware Transoceanic
Thu 12:17:00 AM 38.0609 154.7077 256° West 462 532 41,000  Level FlightAware Transoceanic
Thu 12:18:00 AM 38.0306 154.5586 255° West 462 532 41,000  Level FlightAware Transoceanic
Thu 12:19:00 AM 38.0001 154.4097 255° West 462 532 41,000  Level FlightAware Transoceanic
Thu 12:20:00 AM 37.9695 154.2608 255° West 462 532 41,000  Level FlightAware Transoceanic
Thu 12:21:00 AM 37.9386 154.1120 255° West 462 532 41,000  Level FlightAware Transoceanic
Thu 12:22:00 AM 37.9076 153.9634 255° West 462 532 41,000  Level FlightAware Transoceanic
Thu 12:23:00 AM 37.8763 153.8150 255° West 462 532 41,000  Level FlightAware Transoceanic
Thu 12:24:00 AM 37.8449 153.6666 255° West 462 532 41,000  Level FlightAware Transoceanic
Thu 12:25:00 AM 37.8133 153.5184 255° West 462 532 41,000  Level FlightAware Transoceanic
Thu 12:26:00 AM 37.7815 153.3703 255° West 462 532 41,000  Level FlightAware Transoceanic
Thu 12:27:00 AM 37.7495 153.2223 255° West 462 532 41,000  Level FlightAware Transoceanic
Thu 12:28:00 AM 37.7174 153.0744 255° West 462 532 41,000  Level FlightAware Transoceanic
Thu 12:29:00 AM 37.6850 152.9267 254° West 462 532 41,000  Level FlightAware Transoceanic
Thu 12:30:00 AM 37.6525 152.7791 254° West 462 532 41,000  Level FlightAware Transoceanic
Thu 12:31:00 AM 37.6198 152.6317 254° West 462 532 41,000  Level FlightAware Transoceanic
Thu 12:32:00 AM 37.5869 152.4843 254° West 462 532 41,000  Level FlightAware Transoceanic
Thu 12:33:00 AM 37.5538 152.3371 254° West 462 532 41,000  Level FlightAware Transoceanic
Thu 12:34:00 AM 37.5206 152.1900 254° West 462 532 41,000  Level FlightAware Transoceanic
Thu 12:35:00 AM 37.4871 152.0431 254° West 462 532 41,000  Level FlightAware Transoceanic
Thu 12:36:00 AM 37.4535 151.8963 254° West 462 532 41,000  Level FlightAware Transoceanic
Thu 12:37:00 AM 37.4197 151.7496 254° West 462 532 41,000  Level FlightAware Transoceanic
Thu 12:38:00 AM 37.3857 151.6031 254° West 462 532 41,000  Level FlightAware Transoceanic
Thu 12:39:00 AM 37.3515 151.4567 254° West 462 532 41,000  Level FlightAware Transoceanic
Thu 12:40:00 AM 37.3172 151.3104 254° West 462 532 41,000  Level FlightAware Transoceanic
Thu 12:41:00 AM 37.2827 151.1643 253° West 462 532 41,000  Level FlightAware Transoceanic
Thu 12:42:00 AM 37.2480 151.0182 253° West 462 532 41,000  Level FlightAware Transoceanic
Thu 12:43:00 AM 37.2131 150.8724 253° West 462 532 41,000  Level FlightAware Transoceanic
Thu 12:44:00 AM 37.1780 150.7266 253° West 462 532 41,000  Level FlightAware Transoceanic
Thu 12:45:00 AM 37.1427 150.5810 253° West 462 532 41,000  Level FlightAware Transoceanic
Thu 12:46:00 AM 37.1073 150.4356 253° West 462 532 41,000  Level FlightAware Transoceanic
Thu 12:47:00 AM 37.0717 150.2903 253° West 462 532 41,000  Level FlightAware Transoceanic
Thu 12:48:00 AM 37.0359 150.1451 253° West 462 532 41,000  Level FlightAware Transoceanic
Thu 12:49:00 AM 36.9977 149.9909 253° West  Level FlightAware Approximate
Thu 12:50:00 AM 36.9971 149.9814 259° West  Level FlightAware Approximate
Thu 12:51:00 AM 36.9725 149.8230 259° West  Level FlightAware Approximate
Thu 12:52:00 AM 36.9476 149.6648 259° West  Level FlightAware Approximate
Thu 12:53:00 AM 36.9226 149.5066 259° West  Level FlightAware Approximate
Thu 12:54:00 AM 36.8973 149.3486 259° West  Level FlightAware Approximate
Thu 12:55:00 AM 36.8718 149.1907 259° West  Level FlightAware Approximate
Thu 12:56:00 AM 36.8461 149.0329 259° West  Level FlightAware Approximate
Thu 12:57:00 AM 36.8202 148.8752 258° West  Level FlightAware Approximate
Thu 12:58:00 AM 36.7941 148.7175 258° West  Level FlightAware Approximate
Thu 12:59:00 AM 36.7678 148.5600 258° West  Level FlightAware Approximate
Thu 01:00:00 AM 36.7413 148.4027 258° West  Level FlightAware Approximate
Thu 01:01:00 AM 36.7146 148.2454 258° West  Level FlightAware Approximate
Thu 01:02:00 AM 36.6876 148.0882 258° West  Level FlightAware Approximate
Thu 01:03:00 AM 36.6606 147.9311 258° West  Level FlightAware Approximate
Thu 01:04:00 AM 36.6336 147.7741 258° West  Level FlightAware Approximate
Thu 01:05:00 AM 36.6065 147.6171 258° West  Level FlightAware Approximate
Thu 01:06:00 AM 36.5791 147.4603 258° West  Level FlightAware Approximate
Thu 01:07:00 AM 36.5515 147.3036 258° West  Level FlightAware Approximate
Thu 01:08:00 AM 36.5237 147.1470 258° West  Level FlightAware Approximate
Thu 01:09:00 AM 36.4958 146.9905 258° West  Level FlightAware Approximate
Thu 01:10:00 AM 36.4676 146.8341 257° West  Level FlightAware Approximate
Thu 01:11:00 AM 36.4392 146.6778 257° West  Level FlightAware Approximate
Thu 01:12:00 AM 36.4106 146.5217 257° West  Level FlightAware Approximate
Thu 01:13:00 AM 36.3818 146.3656 257° West  Level FlightAware Approximate
Thu 01:14:00 AM 36.3528 146.2097 257° West  Level FlightAware Approximate
Thu 01:15:00 AM 36.3235 146.0537 257° West  Level FlightAware Approximate
Thu 01:16:00 AM 36.2941 145.8978 257° West  Level FlightAware Approximate
Thu 01:16:59 AM 36.2020 145.7510 256° West 41,000  Level FlightAware ADS-B
Thu 01:17:00 AM 36.2644 145.7420 257° West  Level FlightAware Approximate
Thu 01:18:00 AM 36.2343 145.5864 256° West  Level FlightAware Approximate
Thu 01:19:00 AM 36.2037 145.4310 256° West  Level FlightAware Approximate
Thu 01:19:49 AM 36.1160 145.2920 257° West 41,000  Level FlightAware ADS-B
Thu 01:20:19 AM 36.1040 145.2120 260° West 478 550 41,000  Level FlightAware ADS-B
Thu 01:21:12 AM 36.0860 145.0910 260° West 478 550 41,000  Level FlightAware ADS-B
Thu 01:21:45 AM 36.0700 144.9890 259° West 600 690 41,000  Level FlightAware ADS-B
Thu 01:22:28 AM 36.0560 144.8900 260° West 473 544 41,000  Level FlightAware ADS-B
Thu 01:23:06 AM 36.0380 144.7690 260° West 475 547 41,000  Level FlightAware ADS-B
Thu 01:23:40 AM 36.0250 144.6780 260° West 473 544 41,000  Level FlightAware ADS-B
Thu 01:24:20 AM 36.0090 144.5710 260° West 470 541 41,000  Level FlightAware ADS-B
Thu 01:25:00 AM 35.9940 144.4660 260° West 457 526 41,000  Level FlightAware ADS-B
Thu 01:25:46 AM 35.9790 144.3690 259° West 455 524 41,000  Level FlightAware ADS-B
Thu 01:26:38 AM 35.9580 144.2290 260° West 453 521 41,000  Level FlightAware ADS-B
Thu 01:27:16 AM 35.9450 144.1460 259° West 453 521 41,000  Level FlightAware ADS-B
Thu 01:27:55 AM 35.9290 144.0340 260° West 722 831 41,000  Level FlightAware ADS-B
Thu 01:28:50 AM 35.9060 143.8850 259° West 449 517 41,000  Level FlightAware ADS-B
Thu 01:29:25 AM 35.8930 143.7960 260° West 448 516 41,000  Level FlightAware ADS-B
Thu 01:29:55 AM 35.8810 143.7210 259° West 448 516 41,000  Level FlightAware ADS-B
Thu 01:30:41 AM 35.8650 143.6180 259° West 449 517 41,000  Level FlightAware ADS-B
Thu 01:31:15 AM 35.8530 143.5450 259° West 449 517 41,000  Level FlightAware ADS-B
Thu 01:31:50 AM 35.8360 143.4320 260° West 737 848 41,000 -92 Level FlightAware ADS-B
Thu 01:32:20 AM 35.8240 143.3560 259° West 449 517 40,900 -1,200 Descending FlightAware ADS-B
Thu 01:33:00 AM 35.8080 143.2540 259° West 453 521 39,600 -2,720 Descending FlightAware ADS-B
Thu 01:33:35 AM 35.7940 143.1660 259° West 446 513 37,500 -2,560 Descending FlightAware ADS-B
Thu 01:34:15 AM 35.7790 143.0750 259° West 448 516 36,400 -3,225 Descending FlightAware ADS-B
Thu 01:34:55 AM 35.7610 142.9630 259° West 459 528 33,200 -2,494 Descending FlightAware ADS-B
Thu 01:35:32 AM 35.7480 142.8830 259° West 459 528 33,200 -1,974 Level FlightAware ADS-B
Thu 01:36:11 AM 35.7300 142.7720 259° West 472 543 30,700 -3,280 Descending FlightAware ADS-B
Thu 01:36:47 AM 35.7160 142.6830 259° West 526 605 29,100 -2,696 Descending FlightAware ADS-B
Thu 01:37:20 AM 35.7030 142.6050 258° West 380 437 27,600 -3,217 Descending FlightAware ADS-B
Thu 01:37:56 AM 35.6910 142.5350 258° West 369 425 25,400 -3,138 Descending FlightAware ADS-B
Thu 01:38:25 AM 35.6810 142.4690 259° West 364 419 24,200 -1,043 Descending FlightAware ADS-B
Thu 01:39:05 AM 35.6700 142.4000 259° West 364 419 24,200  Level FlightAware ADS-B
Thu 01:39:41 AM 35.6600 142.3380 259° West 364 419 24,200 -2,704 Level FlightAware ADS-B
Thu 01:40:16 AM 35.6440 142.2480 258° West 567 652 21,000 -3,727 Descending FlightAware ADS-B
Thu 01:40:47 AM 35.6340 142.1880 258° West 352 405 20,100 -1,610 Descending FlightAware ADS-B
Thu 01:41:38 AM 35.6180 142.0970 258° West 368 423 18,800 -1,653 Descending FlightAware ADS-B
Thu 01:42:25 AM 35.6240 141.9950 274° West 339 390 17,400 -1,563 Descending FlightAware ADS-B
Thu 01:43:14 AM 35.6410 141.9090 284° West 283 326 16,300 -1,071 Descending FlightAware ADS-B
Thu 01:43:49 AM 35.6540 141.8480 285° West 333 383 15,900 -1,059 Descending FlightAware ADS-B
Thu 01:44:22 AM 35.6670 141.7850 284° West 329 379 15,100 -783 Descending FlightAware ADS-B
Thu 01:44:58 AM 35.6790 141.7250 284° West 331 381 15,000 -71 Descending FlightAware ADS-B
Thu 01:45:47 AM 35.6970 141.6330 284° West 302 348 15,000 -552 Level FlightAware ADS-B
Thu 01:46:25 AM 35.7100 141.5700 284° West 299 344 14,200 -1,217 Descending FlightAware ADS-B
Thu 01:46:56 AM 35.7200 141.5200 284° West 298 343 13,600 -835 Descending FlightAware ADS-B
Thu 01:47:44 AM 35.7350 141.4430 284° West 296 341 13,100 -645 Descending FlightAware ADS-B
Thu 01:48:29 AM 35.7500 141.3660 284° West 295 339 12,600 -750 Descending FlightAware ADS-B
Thu 01:49:12 AM 35.7650 141.2940 284° West 385 443 12,000 -730 Descending FlightAware ADS-B
Thu 01:49:43 AM 35.7750 141.2430 284° West 293 337 11,700 -600 Descending FlightAware ADS-B
Thu 01:50:22 AM 35.7870 141.1810 283° West 290 334 11,300 -560 Descending FlightAware ADS-B
Thu 01:50:58 AM 35.7990 141.1230 284° West 288 331 11,000 -600 Descending FlightAware ADS-B
Thu 01:51:32 AM 35.8090 141.0680 283° West 285 328 10,600 -600 Descending FlightAware ADS-B
Thu 01:52:08 AM 35.8210 141.0120 285° West 284 327 10,300 -592 Descending FlightAware ADS-B
Thu 01:52:43 AM 35.8310 140.9590 283° West 284 327 9,900 -655 Descending FlightAware ADS-B
Thu 01:53:03 AM 35.8370 140.9280 283° West 286 329 9,700 -600 Descending FlightAware ADS-B
Thu 01:53:23 AM 35.8430 140.8940 282° West 286 329 9,500 -600 Descending FlightAware ADS-B
Thu 01:53:43 AM 35.8490 140.8610 283° West 281 323 9,300 -400 Descending FlightAware ADS-B
Thu 01:54:08 AM 35.8550 140.8210 280° West 283 326 9,200 -146 Descending FlightAware ADS-B
Thu 01:54:24 AM 35.8580 140.7970 279° West 283 326 9,200  Level FlightAware ADS-B
Thu 01:54:49 AM 35.8630 140.7590 279° West 284 327 9,200  Level FlightAware ADS-B
Thu 01:55:03 AM 35.8700 140.7360 291° West 288 331 9,200  Level FlightAware ADS-B
Thu 01:55:13 AM 35.8780 140.7220 305° West 287 330 9,200  Level FlightAware ADS-B
Thu 01:55:44 AM 35.9030 140.6810 307° West 293 337 9,200  Level FlightAware ADS-B
Thu 01:56:08 AM 35.9220 140.6490 306° West 292 336 9,200 -120 Level FlightAware ADS-B
Thu 01:56:34 AM 35.9420 140.6170 308° West 292 336 9,100 -652 Descending FlightAware ADS-B
Thu 01:56:54 AM 35.9610 140.5860 307° West 290 334 8,700 -1,135 Descending FlightAware ADS-B
Thu 01:57:11 AM 35.9740 140.5630 305° West 286 329 8,400 -1,135 Descending FlightAware ADS-B
Thu 01:57:31 AM 35.9900 140.5390 309° West 282 325 8,000 -1,231 Descending FlightAware ADS-B
Thu 01:57:50 AM 36.0050 140.5130 306° West 280 322 7,600 -1,135 Descending FlightAware ADS-B
Thu 01:58:08 AM 36.0190 140.4900 307° West 278 320 7,300 -632 Descending FlightAware ADS-B
Thu 01:58:28 AM 36.0340 140.4640 306° West 276 318 7,200 -563 Descending FlightAware ADS-B
Thu 01:58:40 AM 36.0430 140.4490 307° West 272 313 7,000 -1,125 Descending FlightAware ADS-B
Thu 01:59:00 AM 36.0590 140.4240 308° West 275 316 6,600 -1,167 Descending FlightAware ADS-B
Thu 01:59:16 AM 36.0710 140.4040 307° West 276 318 6,300 -632 Descending FlightAware ADS-B
Thu 01:59:38 AM 36.0880 140.3760 307° West 275 316 6,200 -143 Descending FlightAware ADS-B
Thu 01:59:58 AM 36.1020 140.3520 306° West 263 303 6,200  Level FlightAware ADS-B
Thu 02:00:14 AM 36.1130 140.3330 306° West 245 282 6,200  Level FlightAware ADS-B
Thu 02:00:26 AM 36.1180 140.3180 292° West 231 266 6,200  Level FlightAware ADS-B
Thu 02:00:34 AM 36.1200 140.3070 283° West 225 259 6,200  Level FlightAware ADS-B
Thu 02:00:54 AM 36.1200 140.2820 270° West 222 255 6,200 -300 Level FlightAware ADS-B
Thu 02:01:14 AM 36.1200 140.2570 270° West 222 255 6,000 -1,000 Descending FlightAware ADS-B
Thu 02:01:36 AM 36.1190 140.2290 267° West 224 258 5,500 -1,200 Descending FlightAware ADS-B
Thu 02:01:44 AM 36.1190 140.2180 270° West 225 259 5,400 -857 Descending FlightAware ADS-B
Thu 02:01:57 AM 36.1140 140.2030 248° West 224 258 5,200 -1,143 Descending FlightAware ADS-B
Thu 02:02:05 AM 36.1090 140.1960 229° Southwest 223 257 5,000 -1,125 Descending FlightAware ADS-B
Thu 02:02:13 AM 36.1030 140.1890 223° Southwest 224 258 4,900 -1,091 Descending FlightAware ADS-B
Thu 02:02:27 AM 36.0890 140.1800 207° Southwest 224 258 4,600 -960 Descending FlightAware ADS-B
Thu 02:02:38 AM 36.0780 140.1770 192° South 224 258 4,500 -667 Descending FlightAware ADS-B
Thu 02:03:03 AM 36.0540 140.1770 180° South 218 251 4,200 -340 Descending FlightAware ADS-B
Thu 02:03:31 AM 36.0280 140.1840 168° South 202 232 4,200  Level FlightAware ADS-B
Thu 02:03:42 AM 36.0180 140.1910 150° Southeast 207 238 4,200  Level FlightAware ADS-B
Thu 02:04:02 AM 36.0020 140.2030 149° Southeast 201 231 4,200  Level FlightAware ADS-B
Thu 02:04:27 AM 35.9820 140.2180 149° Southeast 200 230 4,200  Level FlightAware ADS-B
Thu 02:04:46 AM 35.9670 140.2290 149° Southeast 200 230 4,200  Level FlightAware ADS-B
Thu 02:05:09 AM 35.9490 140.2420 150° Southeast 191 220 4,200 -439 Level FlightAware ADS-B
Thu 02:05:27 AM 35.9360 140.2510 151° Southeast 188 216 3,900 -1,105 Descending FlightAware ADS-B
Thu 02:05:47 AM 35.9210 140.2620 149° Southeast 191 220 3,500 -1,116 Descending FlightAware ADS-B
Thu 02:06:10 AM 35.9020 140.2760 149° Southeast 190 219 3,100 -1,029 Descending FlightAware ADS-B
Thu 02:06:22 AM 35.8930 140.2820 152° Southeast 188 216 2,900 -973 Descending FlightAware ADS-B
Thu 02:06:47 AM 35.8750 140.2960 148° Southeast 184 212 2,500 -857 Descending FlightAware ADS-B
Thu 02:07:04 AM 35.8620 140.3050 151° Southeast 181 208 2,300 -878 Descending FlightAware ADS-B
Thu 02:07:28 AM 35.8460 140.3160 151° Southeast 163 188 1,900 -933 Descending FlightAware ADS-B
Thu 02:07:49 AM 35.8320 140.3260 150° Southeast 163 188 1,600 -938 Descending FlightAware ADS-B
Thu 02:08:00 AM 35.8250 140.3320 145° Southeast 159 183 1,400 -857 Descending FlightAware ADS-B
Thu 02:08:24 AM 35.8100 140.3420 152° Southeast 142 163 1,100 -682 Descending FlightAware ADS-B
Thu 02:08:44 AM 35.7990 140.3500 149° Southeast 140 161 900 -714 Descending FlightAware ADS-B
Thu 02:09:06 AM 35.7860 140.3600 148° Southeast 142 163 600 -750 Descending FlightAware ADS-B
Thu 02:09:16 AM 35.7810 140.3630 154° Southeast 144 166 500 -143 Descending FlightAware ADS-B
Thu 02:09:48 AM 35.7650 140.3750 149° Southeast 144 166 500  Level FlightAware ADS-B
Thu 02:12:00 AM 35.7500 140.3833 253° West  Level FlightAware Approximate
Thu 02:13:00 AM 35.7647 140.3864 253° West  Level Estimated
Thu 02:14:00 AM 35.7647 140.3864 253° West  Level Estimated
Thu 02:15:00 AM 35.7647 140.3864 253° West  Level Estimated

Login

Don't have an account? Register now (free) for customized features, flight alerts, and more!